<?xml version="1.0" encoding="UTF-8"?>
<gpx version="1.1" creator="https://www.youtrack.es" xsi:schemaLocation="http://www.topografix.com/GPX/1/1 http://www.topografix.com/GPX/1/1/gpx.xsd http://www.garmin.com/xmlschemas/GpxExtensions/v3 http://www.garmin.com/xmlschemas/GpxExtensionsv3.xsd http://www.garmin.com/xmlschemas/TrackPointExtension/v1 http://www.garmin.com/xmlschemas/TrackPointExtensionv1.xsd" xmlns:gpxtpx="http://www.garmin.com/xmlschemas/TrackPointExtension/v1" xmlns:gpxx="http://www.garmin.com/xmlschemas/GpxExtensions/v3" xmlns:xsi="http://www.w3.org/2001/XMLSchema-instance">
  <metadata>
    <link href="https://www.youtrack.es">
      <text>YouTrack.es</text>
    </link>
    <time>2026-05-09T01:15:04Z</time>
  </metadata>
  <trk>
    <src>https://www.youtrack.es</src>
    <link href="https://www.youtrack.es/ruta/10136-pinheiro">
      <text>YouTrack.es</text>
    </link>
    <trkseg>
      <trkpt lat="-22.2748650" lon="-48.1250210">
        <ele>643.4</ele>
        <time>2019-12-25T10:14:53Z</time>
      </trkpt>
      <trkpt lat="-22.2749330" lon="-48.1251530">
        <ele>642.4</ele>
        <time>2019-12-25T10:14:57Z</time>
      </trkpt>
      <trkpt lat="-22.2749980" lon="-48.1252880">
        <ele>642.0</ele>
        <time>2019-12-25T10:15:01Z</time>
      </trkpt>
      <trkpt lat="-22.2750650" lon="-48.1254510">
        <ele>643.0</ele>
        <time>2019-12-25T10:15:05Z</time>
      </trkpt>
      <trkpt lat="-22.2750860" lon="-48.1255110">
        <ele>641.4</ele>
        <time>2019-12-25T10:15:09Z</time>
      </trkpt>
      <trkpt lat="-22.2752200" lon="-48.1256050">
        <ele>641.4</ele>
        <time>2019-12-25T10:15:13Z</time>
      </trkpt>
      <trkpt lat="-22.2753760" lon="-48.1257000">
        <ele>641.4</ele>
        <time>2019-12-25T10:15:17Z</time>
      </trkpt>
      <trkpt lat="-22.2755060" lon="-48.1257960">
        <ele>642.0</ele>
        <time>2019-12-25T10:15:21Z</time>
      </trkpt>
      <trkpt lat="-22.2757010" lon="-48.1258930">
        <ele>642.2</ele>
        <time>2019-12-25T10:15:25Z</time>
      </trkpt>
      <trkpt lat="-22.2758930" lon="-48.1259880">
        <ele>642.6</ele>
        <time>2019-12-25T10:15:29Z</time>
      </trkpt>
      <trkpt lat="-22.2761050" lon="-48.1260710">
        <ele>642.6</ele>
        <time>2019-12-25T10:15:33Z</time>
      </trkpt>
      <trkpt lat="-22.2763180" lon="-48.1261580">
        <ele>642.6</ele>
        <time>2019-12-25T10:15:37Z</time>
      </trkpt>
      <trkpt lat="-22.2763860" lon="-48.1262510">
        <ele>642.2</ele>
        <time>2019-12-25T10:15:41Z</time>
      </trkpt>
      <trkpt lat="-22.2764210" lon="-48.1263380">
        <ele>641.2</ele>
        <time>2019-12-25T10:15:45Z</time>
      </trkpt>
      <trkpt lat="-22.2768850" lon="-48.1264030">
        <ele>641.0</ele>
        <time>2019-12-25T10:15:49Z</time>
      </trkpt>
      <trkpt lat="-22.2770430" lon="-48.1264730">
        <ele>641.0</ele>
        <time>2019-12-25T10:15:53Z</time>
      </trkpt>
      <trkpt lat="-22.2772210" lon="-48.1265460">
        <ele>641.8</ele>
        <time>2019-12-25T10:15:57Z</time>
      </trkpt>
      <trkpt lat="-22.2774250" lon="-48.1266200">
        <ele>641.8</ele>
        <time>2019-12-25T10:16:01Z</time>
      </trkpt>
      <trkpt lat="-22.2776460" lon="-48.1266830">
        <ele>640.4</ele>
        <time>2019-12-25T10:16:05Z</time>
      </trkpt>
      <trkpt lat="-22.2778430" lon="-48.1267630">
        <ele>640.4</ele>
        <time>2019-12-25T10:16:09Z</time>
      </trkpt>
      <trkpt lat="-22.2779960" lon="-48.1268580">
        <ele>639.0</ele>
        <time>2019-12-25T10:16:13Z</time>
      </trkpt>
      <trkpt lat="-22.2782380" lon="-48.1269460">
        <ele>639.0</ele>
        <time>2019-12-25T10:16:17Z</time>
      </trkpt>
      <trkpt lat="-22.2784450" lon="-48.1270180">
        <ele>638.0</ele>
        <time>2019-12-25T10:16:21Z</time>
      </trkpt>
      <trkpt lat="-22.2786360" lon="-48.1271210">
        <ele>636.8</ele>
        <time>2019-12-25T10:16:25Z</time>
      </trkpt>
      <trkpt lat="-22.2787630" lon="-48.1272210">
        <ele>635.6</ele>
        <time>2019-12-25T10:16:29Z</time>
      </trkpt>
      <trkpt lat="-22.2792410" lon="-48.1273560">
        <ele>633.6</ele>
        <time>2019-12-25T10:16:33Z</time>
      </trkpt>
      <trkpt lat="-22.2796710" lon="-48.1274230">
        <ele>632.6</ele>
        <time>2019-12-25T10:16:37Z</time>
      </trkpt>
      <trkpt lat="-22.2800880" lon="-48.1274830">
        <ele>631.8</ele>
        <time>2019-12-25T10:16:41Z</time>
      </trkpt>
      <trkpt lat="-22.2804630" lon="-48.1275400">
        <ele>631.0</ele>
        <time>2019-12-25T10:16:45Z</time>
      </trkpt>
      <trkpt lat="-22.2808100" lon="-48.1275730">
        <ele>629.2</ele>
        <time>2019-12-25T10:16:49Z</time>
      </trkpt>
      <trkpt lat="-22.2811630" lon="-48.1276180">
        <ele>628.4</ele>
        <time>2019-12-25T10:16:53Z</time>
      </trkpt>
      <trkpt lat="-22.2814910" lon="-48.1276630">
        <ele>628.0</ele>
        <time>2019-12-25T10:16:57Z</time>
      </trkpt>
      <trkpt lat="-22.2818230" lon="-48.1277150">
        <ele>627.4</ele>
        <time>2019-12-25T10:17:01Z</time>
      </trkpt>
      <trkpt lat="-22.2821300" lon="-48.1277650">
        <ele>627.4</ele>
        <time>2019-12-25T10:17:05Z</time>
      </trkpt>
      <trkpt lat="-22.2824300" lon="-48.1277960">
        <ele>626.8</ele>
        <time>2019-12-25T10:17:09Z</time>
      </trkpt>
      <trkpt lat="-22.2827230" lon="-48.1278550">
        <ele>625.2</ele>
        <time>2019-12-25T10:17:13Z</time>
      </trkpt>
      <trkpt lat="-22.2830050" lon="-48.1278980">
        <ele>625.2</ele>
        <time>2019-12-25T10:17:17Z</time>
      </trkpt>
      <trkpt lat="-22.2832980" lon="-48.1279650">
        <ele>623.6</ele>
        <time>2019-12-25T10:17:21Z</time>
      </trkpt>
      <trkpt lat="-22.2836100" lon="-48.1280330">
        <ele>623.2</ele>
        <time>2019-12-25T10:17:25Z</time>
      </trkpt>
      <trkpt lat="-22.2839550" lon="-48.1280910">
        <ele>621.6</ele>
        <time>2019-12-25T10:17:29Z</time>
      </trkpt>
      <trkpt lat="-22.2842800" lon="-48.1281550">
        <ele>620.6</ele>
        <time>2019-12-25T10:17:33Z</time>
      </trkpt>
      <trkpt lat="-22.2846160" lon="-48.1282080">
        <ele>619.4</ele>
        <time>2019-12-25T10:17:37Z</time>
      </trkpt>
      <trkpt lat="-22.2849700" lon="-48.1282630">
        <ele>618.4</ele>
        <time>2019-12-25T10:17:41Z</time>
      </trkpt>
      <trkpt lat="-22.2853150" lon="-48.1283150">
        <ele>617.4</ele>
        <time>2019-12-25T10:17:45Z</time>
      </trkpt>
      <trkpt lat="-22.2856400" lon="-48.1283610">
        <ele>616.8</ele>
        <time>2019-12-25T10:17:49Z</time>
      </trkpt>
      <trkpt lat="-22.2859600" lon="-48.1284050">
        <ele>616.6</ele>
        <time>2019-12-25T10:17:53Z</time>
      </trkpt>
      <trkpt lat="-22.2862500" lon="-48.1284630">
        <ele>615.2</ele>
        <time>2019-12-25T10:17:57Z</time>
      </trkpt>
      <trkpt lat="-22.2865410" lon="-48.1285150">
        <ele>614.2</ele>
        <time>2019-12-25T10:18:01Z</time>
      </trkpt>
      <trkpt lat="-22.2868180" lon="-48.1285600">
        <ele>613.4</ele>
        <time>2019-12-25T10:18:05Z</time>
      </trkpt>
      <trkpt lat="-22.2870960" lon="-48.1286080">
        <ele>613.4</ele>
        <time>2019-12-25T10:18:09Z</time>
      </trkpt>
      <trkpt lat="-22.2873680" lon="-48.1286450">
        <ele>611.6</ele>
        <time>2019-12-25T10:18:13Z</time>
      </trkpt>
      <trkpt lat="-22.2876430" lon="-48.1286930">
        <ele>611.6</ele>
        <time>2019-12-25T10:18:17Z</time>
      </trkpt>
      <trkpt lat="-22.2879130" lon="-48.1287350">
        <ele>611.0</ele>
        <time>2019-12-25T10:18:21Z</time>
      </trkpt>
      <trkpt lat="-22.2881760" lon="-48.1287710">
        <ele>610.6</ele>
        <time>2019-12-25T10:18:25Z</time>
      </trkpt>
      <trkpt lat="-22.2884310" lon="-48.1288130">
        <ele>610.2</ele>
        <time>2019-12-25T10:18:29Z</time>
      </trkpt>
      <trkpt lat="-22.2886860" lon="-48.1288500">
        <ele>609.6</ele>
        <time>2019-12-25T10:18:33Z</time>
      </trkpt>
      <trkpt lat="-22.2889350" lon="-48.1288980">
        <ele>608.8</ele>
        <time>2019-12-25T10:18:37Z</time>
      </trkpt>
      <trkpt lat="-22.2891760" lon="-48.1289280">
        <ele>608.6</ele>
        <time>2019-12-25T10:18:41Z</time>
      </trkpt>
      <trkpt lat="-22.2894300" lon="-48.1289730">
        <ele>607.2</ele>
        <time>2019-12-25T10:18:45Z</time>
      </trkpt>
      <trkpt lat="-22.2897010" lon="-48.1290080">
        <ele>606.0</ele>
        <time>2019-12-25T10:18:49Z</time>
      </trkpt>
      <trkpt lat="-22.2900160" lon="-48.1290560">
        <ele>605.2</ele>
        <time>2019-12-25T10:18:53Z</time>
      </trkpt>
      <trkpt lat="-22.2903830" lon="-48.1291150">
        <ele>603.2</ele>
        <time>2019-12-25T10:18:57Z</time>
      </trkpt>
      <trkpt lat="-22.2908100" lon="-48.1291950">
        <ele>599.2</ele>
        <time>2019-12-25T10:19:01Z</time>
      </trkpt>
      <trkpt lat="-22.2913000" lon="-48.1292280">
        <ele>595.8</ele>
        <time>2019-12-25T10:19:05Z</time>
      </trkpt>
      <trkpt lat="-22.2917700" lon="-48.1293080">
        <ele>593.4</ele>
        <time>2019-12-25T10:19:09Z</time>
      </trkpt>
      <trkpt lat="-22.2920050" lon="-48.1294560">
        <ele>592.4</ele>
        <time>2019-12-25T10:19:13Z</time>
      </trkpt>
      <trkpt lat="-22.2920650" lon="-48.1295530">
        <ele>591.4</ele>
        <time>2019-12-25T10:19:17Z</time>
      </trkpt>
      <trkpt lat="-22.2921600" lon="-48.1295950">
        <ele>590.6</ele>
        <time>2019-12-25T10:19:21Z</time>
      </trkpt>
      <trkpt lat="-22.2922650" lon="-48.1297150">
        <ele>590.6</ele>
        <time>2019-12-25T10:19:25Z</time>
      </trkpt>
      <trkpt lat="-22.2923880" lon="-48.1299260">
        <ele>592.2</ele>
        <time>2019-12-25T10:19:29Z</time>
      </trkpt>
      <trkpt lat="-22.2924680" lon="-48.1300860">
        <ele>592.2</ele>
        <time>2019-12-25T10:19:33Z</time>
      </trkpt>
      <trkpt lat="-22.2925500" lon="-48.1301750">
        <ele>593.2</ele>
        <time>2019-12-25T10:19:37Z</time>
      </trkpt>
      <trkpt lat="-22.2926280" lon="-48.1303560">
        <ele>594.2</ele>
        <time>2019-12-25T10:19:41Z</time>
      </trkpt>
      <trkpt lat="-22.2927110" lon="-48.1305300">
        <ele>595.2</ele>
        <time>2019-12-25T10:19:45Z</time>
      </trkpt>
      <trkpt lat="-22.2927980" lon="-48.1306550">
        <ele>598.0</ele>
        <time>2019-12-25T10:19:49Z</time>
      </trkpt>
      <trkpt lat="-22.2928860" lon="-48.1307980">
        <ele>598.6</ele>
        <time>2019-12-25T10:19:53Z</time>
      </trkpt>
      <trkpt lat="-22.2929660" lon="-48.1309250">
        <ele>600.0</ele>
        <time>2019-12-25T10:19:57Z</time>
      </trkpt>
      <trkpt lat="-22.2930410" lon="-48.1310560">
        <ele>601.8</ele>
        <time>2019-12-25T10:20:01Z</time>
      </trkpt>
      <trkpt lat="-22.2931030" lon="-48.1312110">
        <ele>601.8</ele>
        <time>2019-12-25T10:20:05Z</time>
      </trkpt>
      <trkpt lat="-22.2931900" lon="-48.1313730">
        <ele>602.6</ele>
        <time>2019-12-25T10:20:09Z</time>
      </trkpt>
      <trkpt lat="-22.2932760" lon="-48.1315200">
        <ele>604.4</ele>
        <time>2019-12-25T10:20:13Z</time>
      </trkpt>
      <trkpt lat="-22.2933600" lon="-48.1316510">
        <ele>605.2</ele>
        <time>2019-12-25T10:20:17Z</time>
      </trkpt>
      <trkpt lat="-22.2934260" lon="-48.1317850">
        <ele>607.0</ele>
        <time>2019-12-25T10:20:21Z</time>
      </trkpt>
      <trkpt lat="-22.2934980" lon="-48.1318980">
        <ele>606.2</ele>
        <time>2019-12-25T10:20:25Z</time>
      </trkpt>
      <trkpt lat="-22.2935610" lon="-48.1319750">
        <ele>607.2</ele>
        <time>2019-12-25T10:20:29Z</time>
      </trkpt>
      <trkpt lat="-22.2936310" lon="-48.1320630">
        <ele>609.0</ele>
        <time>2019-12-25T10:20:33Z</time>
      </trkpt>
      <trkpt lat="-22.2937010" lon="-48.1321180">
        <ele>609.8</ele>
        <time>2019-12-25T10:20:37Z</time>
      </trkpt>
      <trkpt lat="-22.2937660" lon="-48.1321730">
        <ele>609.8</ele>
        <time>2019-12-25T10:20:41Z</time>
      </trkpt>
      <trkpt lat="-22.2938050" lon="-48.1322510">
        <ele>610.8</ele>
        <time>2019-12-25T10:20:45Z</time>
      </trkpt>
      <trkpt lat="-22.2938650" lon="-48.1323310">
        <ele>611.8</ele>
        <time>2019-12-25T10:20:49Z</time>
      </trkpt>
      <trkpt lat="-22.2939250" lon="-48.1323960">
        <ele>611.8</ele>
        <time>2019-12-25T10:20:53Z</time>
      </trkpt>
      <trkpt lat="-22.2939900" lon="-48.1324830">
        <ele>612.2</ele>
        <time>2019-12-25T10:20:57Z</time>
      </trkpt>
      <trkpt lat="-22.2940510" lon="-48.1325980">
        <ele>613.0</ele>
        <time>2019-12-25T10:21:01Z</time>
      </trkpt>
      <trkpt lat="-22.2941160" lon="-48.1327080">
        <ele>613.0</ele>
        <time>2019-12-25T10:21:05Z</time>
      </trkpt>
      <trkpt lat="-22.2941760" lon="-48.1328030">
        <ele>613.6</ele>
        <time>2019-12-25T10:21:09Z</time>
      </trkpt>
      <trkpt lat="-22.2942460" lon="-48.1329450">
        <ele>614.0</ele>
        <time>2019-12-25T10:21:13Z</time>
      </trkpt>
      <trkpt lat="-22.2943180" lon="-48.1330730">
        <ele>614.4</ele>
        <time>2019-12-25T10:21:17Z</time>
      </trkpt>
      <trkpt lat="-22.2943800" lon="-48.1331810">
        <ele>614.8</ele>
        <time>2019-12-25T10:21:21Z</time>
      </trkpt>
      <trkpt lat="-22.2944430" lon="-48.1333260">
        <ele>615.8</ele>
        <time>2019-12-25T10:21:25Z</time>
      </trkpt>
      <trkpt lat="-22.2945110" lon="-48.1334560">
        <ele>615.8</ele>
        <time>2019-12-25T10:21:29Z</time>
      </trkpt>
      <trkpt lat="-22.2945600" lon="-48.1336060">
        <ele>616.4</ele>
        <time>2019-12-25T10:21:33Z</time>
      </trkpt>
      <trkpt lat="-22.2946180" lon="-48.1339360">
        <ele>617.4</ele>
        <time>2019-12-25T10:21:37Z</time>
      </trkpt>
      <trkpt lat="-22.2946750" lon="-48.1340630">
        <ele>617.4</ele>
        <time>2019-12-25T10:21:41Z</time>
      </trkpt>
      <trkpt lat="-22.2947480" lon="-48.1341800">
        <ele>617.6</ele>
        <time>2019-12-25T10:21:45Z</time>
      </trkpt>
      <trkpt lat="-22.2948050" lon="-48.1342780">
        <ele>618.0</ele>
        <time>2019-12-25T10:21:49Z</time>
      </trkpt>
      <trkpt lat="-22.2948550" lon="-48.1343560">
        <ele>618.8</ele>
        <time>2019-12-25T10:21:53Z</time>
      </trkpt>
      <trkpt lat="-22.2949130" lon="-48.1344530">
        <ele>618.8</ele>
        <time>2019-12-25T10:21:57Z</time>
      </trkpt>
      <trkpt lat="-22.2949700" lon="-48.1345610">
        <ele>619.4</ele>
        <time>2019-12-25T10:22:01Z</time>
      </trkpt>
      <trkpt lat="-22.2950130" lon="-48.1346580">
        <ele>620.2</ele>
        <time>2019-12-25T10:22:05Z</time>
      </trkpt>
      <trkpt lat="-22.2950460" lon="-48.1347500">
        <ele>620.4</ele>
        <time>2019-12-25T10:22:09Z</time>
      </trkpt>
      <trkpt lat="-22.2950830" lon="-48.1348550">
        <ele>620.4</ele>
        <time>2019-12-25T10:22:13Z</time>
      </trkpt>
      <trkpt lat="-22.2951230" lon="-48.1349860">
        <ele>621.0</ele>
        <time>2019-12-25T10:22:17Z</time>
      </trkpt>
      <trkpt lat="-22.2951580" lon="-48.1351310">
        <ele>620.6</ele>
        <time>2019-12-25T10:22:21Z</time>
      </trkpt>
      <trkpt lat="-22.2951980" lon="-48.1352830">
        <ele>621.0</ele>
        <time>2019-12-25T10:22:25Z</time>
      </trkpt>
      <trkpt lat="-22.2952480" lon="-48.1354160">
        <ele>620.6</ele>
        <time>2019-12-25T10:22:29Z</time>
      </trkpt>
      <trkpt lat="-22.2953000" lon="-48.1355610">
        <ele>621.2</ele>
        <time>2019-12-25T10:22:33Z</time>
      </trkpt>
      <trkpt lat="-22.2953500" lon="-48.1357100">
        <ele>621.4</ele>
        <time>2019-12-25T10:22:37Z</time>
      </trkpt>
      <trkpt lat="-22.2954010" lon="-48.1358550">
        <ele>621.4</ele>
        <time>2019-12-25T10:22:41Z</time>
      </trkpt>
      <trkpt lat="-22.2954560" lon="-48.1359960">
        <ele>621.4</ele>
        <time>2019-12-25T10:22:45Z</time>
      </trkpt>
      <trkpt lat="-22.2955030" lon="-48.1361430">
        <ele>621.6</ele>
        <time>2019-12-25T10:22:49Z</time>
      </trkpt>
      <trkpt lat="-22.2955430" lon="-48.1362630">
        <ele>621.6</ele>
        <time>2019-12-25T10:22:53Z</time>
      </trkpt>
      <trkpt lat="-22.2955780" lon="-48.1363660">
        <ele>621.6</ele>
        <time>2019-12-25T10:22:57Z</time>
      </trkpt>
      <trkpt lat="-22.2956350" lon="-48.1364260">
        <ele>621.6</ele>
        <time>2019-12-25T10:23:01Z</time>
      </trkpt>
      <trkpt lat="-22.2956780" lon="-48.1364960">
        <ele>622.2</ele>
        <time>2019-12-25T10:23:05Z</time>
      </trkpt>
      <trkpt lat="-22.2957310" lon="-48.1365750">
        <ele>622.6</ele>
        <time>2019-12-25T10:23:09Z</time>
      </trkpt>
      <trkpt lat="-22.2957750" lon="-48.1366910">
        <ele>622.6</ele>
        <time>2019-12-25T10:23:13Z</time>
      </trkpt>
      <trkpt lat="-22.2958350" lon="-48.1368130">
        <ele>622.6</ele>
        <time>2019-12-25T10:23:17Z</time>
      </trkpt>
      <trkpt lat="-22.2958900" lon="-48.1369700">
        <ele>622.0</ele>
        <time>2019-12-25T10:23:21Z</time>
      </trkpt>
      <trkpt lat="-22.2959410" lon="-48.1371260">
        <ele>622.8</ele>
        <time>2019-12-25T10:23:25Z</time>
      </trkpt>
      <trkpt lat="-22.2959930" lon="-48.1372960">
        <ele>623.8</ele>
        <time>2019-12-25T10:23:29Z</time>
      </trkpt>
      <trkpt lat="-22.2960380" lon="-48.1374700">
        <ele>623.0</ele>
        <time>2019-12-25T10:23:33Z</time>
      </trkpt>
      <trkpt lat="-22.2960690" lon="-48.1378820">
        <ele>623.0</ele>
        <time>2019-12-25T10:23:37Z</time>
      </trkpt>
      <trkpt lat="-22.2961000" lon="-48.1382950">
        <ele>624.4</ele>
        <time>2019-12-25T10:23:41Z</time>
      </trkpt>
      <trkpt lat="-22.2961350" lon="-48.1384630">
        <ele>623.6</ele>
        <time>2019-12-25T10:23:45Z</time>
      </trkpt>
      <trkpt lat="-22.2961730" lon="-48.1386300">
        <ele>624.4</ele>
        <time>2019-12-25T10:23:49Z</time>
      </trkpt>
      <trkpt lat="-22.2962150" lon="-48.1387860">
        <ele>624.4</ele>
        <time>2019-12-25T10:23:53Z</time>
      </trkpt>
      <trkpt lat="-22.2962560" lon="-48.1389450">
        <ele>624.8</ele>
        <time>2019-12-25T10:23:57Z</time>
      </trkpt>
      <trkpt lat="-22.2962980" lon="-48.1391110">
        <ele>625.8</ele>
        <time>2019-12-25T10:24:01Z</time>
      </trkpt>
      <trkpt lat="-22.2963460" lon="-48.1392760">
        <ele>625.8</ele>
        <time>2019-12-25T10:24:05Z</time>
      </trkpt>
      <trkpt lat="-22.2963880" lon="-48.1394410">
        <ele>626.8</ele>
        <time>2019-12-25T10:24:09Z</time>
      </trkpt>
      <trkpt lat="-22.2964260" lon="-48.1396080">
        <ele>626.8</ele>
        <time>2019-12-25T10:24:13Z</time>
      </trkpt>
      <trkpt lat="-22.2964680" lon="-48.1397880">
        <ele>627.0</ele>
        <time>2019-12-25T10:24:17Z</time>
      </trkpt>
      <trkpt lat="-22.2965130" lon="-48.1399580">
        <ele>627.2</ele>
        <time>2019-12-25T10:24:21Z</time>
      </trkpt>
      <trkpt lat="-22.2965650" lon="-48.1401280">
        <ele>628.0</ele>
        <time>2019-12-25T10:24:25Z</time>
      </trkpt>
      <trkpt lat="-22.2966300" lon="-48.1402910">
        <ele>629.0</ele>
        <time>2019-12-25T10:24:29Z</time>
      </trkpt>
      <trkpt lat="-22.2966780" lon="-48.1404460">
        <ele>630.2</ele>
        <time>2019-12-25T10:24:33Z</time>
      </trkpt>
      <trkpt lat="-22.2967180" lon="-48.1406150">
        <ele>630.2</ele>
        <time>2019-12-25T10:24:37Z</time>
      </trkpt>
      <trkpt lat="-22.2967630" lon="-48.1407830">
        <ele>631.0</ele>
        <time>2019-12-25T10:24:41Z</time>
      </trkpt>
      <trkpt lat="-22.2968110" lon="-48.1409500">
        <ele>631.0</ele>
        <time>2019-12-25T10:24:45Z</time>
      </trkpt>
      <trkpt lat="-22.2968560" lon="-48.1411150">
        <ele>631.8</ele>
        <time>2019-12-25T10:24:49Z</time>
      </trkpt>
      <trkpt lat="-22.2969000" lon="-48.1412780">
        <ele>631.8</ele>
        <time>2019-12-25T10:24:53Z</time>
      </trkpt>
      <trkpt lat="-22.2969460" lon="-48.1414330">
        <ele>633.2</ele>
        <time>2019-12-25T10:24:57Z</time>
      </trkpt>
      <trkpt lat="-22.2969910" lon="-48.1415850">
        <ele>633.2</ele>
        <time>2019-12-25T10:25:01Z</time>
      </trkpt>
      <trkpt lat="-22.2970260" lon="-48.1417480">
        <ele>633.8</ele>
        <time>2019-12-25T10:25:05Z</time>
      </trkpt>
      <trkpt lat="-22.2970710" lon="-48.1419130">
        <ele>634.2</ele>
        <time>2019-12-25T10:25:09Z</time>
      </trkpt>
      <trkpt lat="-22.2971130" lon="-48.1420800">
        <ele>634.2</ele>
        <time>2019-12-25T10:25:13Z</time>
      </trkpt>
      <trkpt lat="-22.2971580" lon="-48.1422400">
        <ele>635.0</ele>
        <time>2019-12-25T10:25:17Z</time>
      </trkpt>
      <trkpt lat="-22.2971980" lon="-48.1424080">
        <ele>635.4</ele>
        <time>2019-12-25T10:25:21Z</time>
      </trkpt>
      <trkpt lat="-22.2972430" lon="-48.1425650">
        <ele>636.4</ele>
        <time>2019-12-25T10:25:25Z</time>
      </trkpt>
      <trkpt lat="-22.2972910" lon="-48.1427160">
        <ele>636.4</ele>
        <time>2019-12-25T10:25:29Z</time>
      </trkpt>
      <trkpt lat="-22.2973410" lon="-48.1428780">
        <ele>637.8</ele>
        <time>2019-12-25T10:25:33Z</time>
      </trkpt>
      <trkpt lat="-22.2973830" lon="-48.1430300">
        <ele>638.2</ele>
        <time>2019-12-25T10:25:37Z</time>
      </trkpt>
      <trkpt lat="-22.2974250" lon="-48.1431850">
        <ele>638.2</ele>
        <time>2019-12-25T10:25:41Z</time>
      </trkpt>
      <trkpt lat="-22.2974560" lon="-48.1433300">
        <ele>639.2</ele>
        <time>2019-12-25T10:25:45Z</time>
      </trkpt>
      <trkpt lat="-22.2974880" lon="-48.1434680">
        <ele>639.2</ele>
        <time>2019-12-25T10:25:49Z</time>
      </trkpt>
      <trkpt lat="-22.2975200" lon="-48.1436210">
        <ele>639.8</ele>
        <time>2019-12-25T10:25:53Z</time>
      </trkpt>
      <trkpt lat="-22.2975580" lon="-48.1437780">
        <ele>640.0</ele>
        <time>2019-12-25T10:25:57Z</time>
      </trkpt>
      <trkpt lat="-22.2976060" lon="-48.1439230">
        <ele>640.4</ele>
        <time>2019-12-25T10:26:01Z</time>
      </trkpt>
      <trkpt lat="-22.2976430" lon="-48.1440700">
        <ele>640.4</ele>
        <time>2019-12-25T10:26:05Z</time>
      </trkpt>
      <trkpt lat="-22.2976880" lon="-48.1442110">
        <ele>640.4</ele>
        <time>2019-12-25T10:26:09Z</time>
      </trkpt>
      <trkpt lat="-22.2977200" lon="-48.1443580">
        <ele>641.0</ele>
        <time>2019-12-25T10:26:13Z</time>
      </trkpt>
      <trkpt lat="-22.2977500" lon="-48.1445010">
        <ele>641.0</ele>
        <time>2019-12-25T10:26:17Z</time>
      </trkpt>
      <trkpt lat="-22.2977880" lon="-48.1446460">
        <ele>641.8</ele>
        <time>2019-12-25T10:26:21Z</time>
      </trkpt>
      <trkpt lat="-22.2978230" lon="-48.1447900">
        <ele>642.2</ele>
        <time>2019-12-25T10:26:25Z</time>
      </trkpt>
      <trkpt lat="-22.2978460" lon="-48.1449380">
        <ele>642.6</ele>
        <time>2019-12-25T10:26:29Z</time>
      </trkpt>
      <trkpt lat="-22.2978710" lon="-48.1450860">
        <ele>643.2</ele>
        <time>2019-12-25T10:26:33Z</time>
      </trkpt>
      <trkpt lat="-22.2978850" lon="-48.1452360">
        <ele>643.4</ele>
        <time>2019-12-25T10:26:37Z</time>
      </trkpt>
      <trkpt lat="-22.2978950" lon="-48.1453830">
        <ele>644.0</ele>
        <time>2019-12-25T10:26:41Z</time>
      </trkpt>
      <trkpt lat="-22.2979060" lon="-48.1455330">
        <ele>644.0</ele>
        <time>2019-12-25T10:26:45Z</time>
      </trkpt>
      <trkpt lat="-22.2979080" lon="-48.1456810">
        <ele>644.6</ele>
        <time>2019-12-25T10:26:49Z</time>
      </trkpt>
      <trkpt lat="-22.2978930" lon="-48.1458280">
        <ele>644.8</ele>
        <time>2019-12-25T10:26:53Z</time>
      </trkpt>
      <trkpt lat="-22.2978860" lon="-48.1459780">
        <ele>645.8</ele>
        <time>2019-12-25T10:26:57Z</time>
      </trkpt>
      <trkpt lat="-22.2978660" lon="-48.1461260">
        <ele>645.8</ele>
        <time>2019-12-25T10:27:01Z</time>
      </trkpt>
      <trkpt lat="-22.2978500" lon="-48.1462800">
        <ele>645.6</ele>
        <time>2019-12-25T10:27:05Z</time>
      </trkpt>
      <trkpt lat="-22.2978300" lon="-48.1464360">
        <ele>645.6</ele>
        <time>2019-12-25T10:27:09Z</time>
      </trkpt>
      <trkpt lat="-22.2977960" lon="-48.1466080">
        <ele>645.4</ele>
        <time>2019-12-25T10:27:13Z</time>
      </trkpt>
      <trkpt lat="-22.2977580" lon="-48.1468060">
        <ele>643.6</ele>
        <time>2019-12-25T10:27:17Z</time>
      </trkpt>
      <trkpt lat="-22.2977380" lon="-48.1470160">
        <ele>644.0</ele>
        <time>2019-12-25T10:27:21Z</time>
      </trkpt>
      <trkpt lat="-22.2977100" lon="-48.1472510">
        <ele>643.2</ele>
        <time>2019-12-25T10:27:25Z</time>
      </trkpt>
      <trkpt lat="-22.2976750" lon="-48.1475030">
        <ele>642.0</ele>
        <time>2019-12-25T10:27:29Z</time>
      </trkpt>
      <trkpt lat="-22.2976550" lon="-48.1477550">
        <ele>641.4</ele>
        <time>2019-12-25T10:27:33Z</time>
      </trkpt>
      <trkpt lat="-22.2976350" lon="-48.1479930">
        <ele>641.6</ele>
        <time>2019-12-25T10:27:37Z</time>
      </trkpt>
      <trkpt lat="-22.2976260" lon="-48.1482250">
        <ele>640.6</ele>
        <time>2019-12-25T10:27:41Z</time>
      </trkpt>
      <trkpt lat="-22.2976330" lon="-48.1484780">
        <ele>639.0</ele>
        <time>2019-12-25T10:27:45Z</time>
      </trkpt>
      <trkpt lat="-22.2976560" lon="-48.1487350">
        <ele>637.8</ele>
        <time>2019-12-25T10:27:49Z</time>
      </trkpt>
      <trkpt lat="-22.2976910" lon="-48.1489800">
        <ele>638.6</ele>
        <time>2019-12-25T10:27:53Z</time>
      </trkpt>
      <trkpt lat="-22.2976600" lon="-48.1531160">
        <ele>632.8</ele>
        <time>2019-12-25T10:29:33Z</time>
      </trkpt>
      <trkpt lat="-22.2976280" lon="-48.1533360">
        <ele>629.6</ele>
        <time>2019-12-25T10:29:37Z</time>
      </trkpt>
      <trkpt lat="-22.2975860" lon="-48.1536200">
        <ele>626.8</ele>
        <time>2019-12-25T10:29:41Z</time>
      </trkpt>
      <trkpt lat="-22.2975380" lon="-48.1539350">
        <ele>625.8</ele>
        <time>2019-12-25T10:29:45Z</time>
      </trkpt>
      <trkpt lat="-22.2975000" lon="-48.1542710">
        <ele>627.6</ele>
        <time>2019-12-25T10:29:49Z</time>
      </trkpt>
      <trkpt lat="-22.2974450" lon="-48.1546180">
        <ele>626.6</ele>
        <time>2019-12-25T10:29:53Z</time>
      </trkpt>
      <trkpt lat="-22.2974000" lon="-48.1549680">
        <ele>625.8</ele>
        <time>2019-12-25T10:29:57Z</time>
      </trkpt>
      <trkpt lat="-22.2973630" lon="-48.1552850">
        <ele>625.8</ele>
        <time>2019-12-25T10:30:01Z</time>
      </trkpt>
      <trkpt lat="-22.2973330" lon="-48.1555560">
        <ele>625.2</ele>
        <time>2019-12-25T10:30:05Z</time>
      </trkpt>
      <trkpt lat="-22.2972900" lon="-48.1557530">
        <ele>625.6</ele>
        <time>2019-12-25T10:30:09Z</time>
      </trkpt>
      <trkpt lat="-22.2972430" lon="-48.1559010">
        <ele>627.0</ele>
        <time>2019-12-25T10:30:13Z</time>
      </trkpt>
      <trkpt lat="-22.2971930" lon="-48.1560300">
        <ele>627.2</ele>
        <time>2019-12-25T10:30:17Z</time>
      </trkpt>
      <trkpt lat="-22.2971410" lon="-48.1561510">
        <ele>628.8</ele>
        <time>2019-12-25T10:30:21Z</time>
      </trkpt>
      <trkpt lat="-22.2970950" lon="-48.1562650">
        <ele>628.8</ele>
        <time>2019-12-25T10:30:25Z</time>
      </trkpt>
      <trkpt lat="-22.2970480" lon="-48.1563900">
        <ele>629.6</ele>
        <time>2019-12-25T10:30:29Z</time>
      </trkpt>
      <trkpt lat="-22.2970080" lon="-48.1565330">
        <ele>630.2</ele>
        <time>2019-12-25T10:30:33Z</time>
      </trkpt>
      <trkpt lat="-22.2969700" lon="-48.1566660">
        <ele>631.4</ele>
        <time>2019-12-25T10:30:37Z</time>
      </trkpt>
      <trkpt lat="-22.2969400" lon="-48.1567930">
        <ele>631.8</ele>
        <time>2019-12-25T10:30:41Z</time>
      </trkpt>
      <trkpt lat="-22.2969080" lon="-48.1569010">
        <ele>632.6</ele>
        <time>2019-12-25T10:30:45Z</time>
      </trkpt>
      <trkpt lat="-22.2968860" lon="-48.1569910">
        <ele>633.6</ele>
        <time>2019-12-25T10:30:49Z</time>
      </trkpt>
      <trkpt lat="-22.2968680" lon="-48.1570800">
        <ele>634.4</ele>
        <time>2019-12-25T10:30:53Z</time>
      </trkpt>
      <trkpt lat="-22.2968930" lon="-48.1571900">
        <ele>634.4</ele>
        <time>2019-12-25T10:30:57Z</time>
      </trkpt>
      <trkpt lat="-22.2969210" lon="-48.1573250">
        <ele>635.0</ele>
        <time>2019-12-25T10:31:01Z</time>
      </trkpt>
      <trkpt lat="-22.2969930" lon="-48.1574330">
        <ele>635.2</ele>
        <time>2019-12-25T10:31:05Z</time>
      </trkpt>
      <trkpt lat="-22.2971000" lon="-48.1575230">
        <ele>635.2</ele>
        <time>2019-12-25T10:31:09Z</time>
      </trkpt>
      <trkpt lat="-22.2972030" lon="-48.1576360">
        <ele>635.6</ele>
        <time>2019-12-25T10:31:13Z</time>
      </trkpt>
      <trkpt lat="-22.2973150" lon="-48.1577450">
        <ele>636.2</ele>
        <time>2019-12-25T10:31:17Z</time>
      </trkpt>
      <trkpt lat="-22.2974250" lon="-48.1578510">
        <ele>636.6</ele>
        <time>2019-12-25T10:31:21Z</time>
      </trkpt>
      <trkpt lat="-22.2975280" lon="-48.1579560">
        <ele>637.8</ele>
        <time>2019-12-25T10:31:25Z</time>
      </trkpt>
      <trkpt lat="-22.2976130" lon="-48.1580650">
        <ele>637.8</ele>
        <time>2019-12-25T10:31:29Z</time>
      </trkpt>
      <trkpt lat="-22.2977030" lon="-48.1581550">
        <ele>638.6</ele>
        <time>2019-12-25T10:31:33Z</time>
      </trkpt>
      <trkpt lat="-22.2977900" lon="-48.1582550">
        <ele>639.0</ele>
        <time>2019-12-25T10:31:37Z</time>
      </trkpt>
      <trkpt lat="-22.2978730" lon="-48.1583630">
        <ele>638.0</ele>
        <time>2019-12-25T10:31:41Z</time>
      </trkpt>
      <trkpt lat="-22.2979710" lon="-48.1584610">
        <ele>639.4</ele>
        <time>2019-12-25T10:31:45Z</time>
      </trkpt>
      <trkpt lat="-22.2980560" lon="-48.1585450">
        <ele>638.0</ele>
        <time>2019-12-25T10:31:49Z</time>
      </trkpt>
      <trkpt lat="-22.2980560" lon="-48.1585450">
        <ele>638.0</ele>
        <time>2019-12-25T10:31:53Z</time>
      </trkpt>
      <trkpt lat="-22.2981450" lon="-48.1586780">
        <ele>636.6</ele>
        <time>2019-12-25T10:32:33Z</time>
      </trkpt>
      <trkpt lat="-22.2982380" lon="-48.1588280">
        <ele>636.4</ele>
        <time>2019-12-25T10:32:37Z</time>
      </trkpt>
      <trkpt lat="-22.2983610" lon="-48.1590150">
        <ele>634.8</ele>
        <time>2019-12-25T10:32:41Z</time>
      </trkpt>
      <trkpt lat="-22.2984980" lon="-48.1592260">
        <ele>634.8</ele>
        <time>2019-12-25T10:32:45Z</time>
      </trkpt>
      <trkpt lat="-22.2986380" lon="-48.1594630">
        <ele>633.8</ele>
        <time>2019-12-25T10:32:49Z</time>
      </trkpt>
      <trkpt lat="-22.2987760" lon="-48.1597100">
        <ele>631.8</ele>
        <time>2019-12-25T10:32:53Z</time>
      </trkpt>
      <trkpt lat="-22.2989210" lon="-48.1599560">
        <ele>631.8</ele>
        <time>2019-12-25T10:32:57Z</time>
      </trkpt>
      <trkpt lat="-22.2990600" lon="-48.1602200">
        <ele>629.8</ele>
        <time>2019-12-25T10:33:01Z</time>
      </trkpt>
      <trkpt lat="-22.2992100" lon="-48.1604860">
        <ele>630.8</ele>
        <time>2019-12-25T10:33:05Z</time>
      </trkpt>
      <trkpt lat="-22.2993660" lon="-48.1607750">
        <ele>627.8</ele>
        <time>2019-12-25T10:33:09Z</time>
      </trkpt>
      <trkpt lat="-22.2995410" lon="-48.1610680">
        <ele>625.8</ele>
        <time>2019-12-25T10:33:13Z</time>
      </trkpt>
      <trkpt lat="-22.2997250" lon="-48.1613730">
        <ele>624.4</ele>
        <time>2019-12-25T10:33:17Z</time>
      </trkpt>
      <trkpt lat="-22.2998910" lon="-48.1616780">
        <ele>623.4</ele>
        <time>2019-12-25T10:33:21Z</time>
      </trkpt>
      <trkpt lat="-22.3000700" lon="-48.1619950">
        <ele>622.4</ele>
        <time>2019-12-25T10:33:25Z</time>
      </trkpt>
      <trkpt lat="-22.3002430" lon="-48.1623050">
        <ele>623.4</ele>
        <time>2019-12-25T10:33:29Z</time>
      </trkpt>
      <trkpt lat="-22.3003980" lon="-48.1625880">
        <ele>624.4</ele>
        <time>2019-12-25T10:33:33Z</time>
      </trkpt>
      <trkpt lat="-22.3005580" lon="-48.1628800">
        <ele>621.4</ele>
        <time>2019-12-25T10:33:37Z</time>
      </trkpt>
      <trkpt lat="-22.3007030" lon="-48.1631610">
        <ele>620.6</ele>
        <time>2019-12-25T10:33:41Z</time>
      </trkpt>
      <trkpt lat="-22.3008360" lon="-48.1633960">
        <ele>620.6</ele>
        <time>2019-12-25T10:33:45Z</time>
      </trkpt>
      <trkpt lat="-22.3009510" lon="-48.1636000">
        <ele>621.6</ele>
        <time>2019-12-25T10:33:49Z</time>
      </trkpt>
      <trkpt lat="-22.3010660" lon="-48.1637830">
        <ele>621.6</ele>
        <time>2019-12-25T10:33:53Z</time>
      </trkpt>
      <trkpt lat="-22.3011660" lon="-48.1639630">
        <ele>621.6</ele>
        <time>2019-12-25T10:33:57Z</time>
      </trkpt>
      <trkpt lat="-22.3012830" lon="-48.1641460">
        <ele>623.2</ele>
        <time>2019-12-25T10:34:01Z</time>
      </trkpt>
      <trkpt lat="-22.3013960" lon="-48.1643330">
        <ele>621.2</ele>
        <time>2019-12-25T10:34:05Z</time>
      </trkpt>
      <trkpt lat="-22.3015200" lon="-48.1645400">
        <ele>620.6</ele>
        <time>2019-12-25T10:34:09Z</time>
      </trkpt>
      <trkpt lat="-22.3016410" lon="-48.1647450">
        <ele>620.8</ele>
        <time>2019-12-25T10:34:13Z</time>
      </trkpt>
      <trkpt lat="-22.3017710" lon="-48.1649660">
        <ele>620.0</ele>
        <time>2019-12-25T10:34:17Z</time>
      </trkpt>
      <trkpt lat="-22.3019060" lon="-48.1651950">
        <ele>619.0</ele>
        <time>2019-12-25T10:34:21Z</time>
      </trkpt>
      <trkpt lat="-22.3020360" lon="-48.1654280">
        <ele>618.0</ele>
        <time>2019-12-25T10:34:25Z</time>
      </trkpt>
      <trkpt lat="-22.3021610" lon="-48.1656930">
        <ele>616.6</ele>
        <time>2019-12-25T10:34:29Z</time>
      </trkpt>
      <trkpt lat="-22.3023030" lon="-48.1659710">
        <ele>615.6</ele>
        <time>2019-12-25T10:34:33Z</time>
      </trkpt>
      <trkpt lat="-22.3024450" lon="-48.1662350">
        <ele>614.6</ele>
        <time>2019-12-25T10:34:37Z</time>
      </trkpt>
      <trkpt lat="-22.3025560" lon="-48.1664680">
        <ele>614.6</ele>
        <time>2019-12-25T10:34:41Z</time>
      </trkpt>
      <trkpt lat="-22.3026600" lon="-48.1666800">
        <ele>614.6</ele>
        <time>2019-12-25T10:34:45Z</time>
      </trkpt>
      <trkpt lat="-22.3027380" lon="-48.1668610">
        <ele>614.6</ele>
        <time>2019-12-25T10:34:49Z</time>
      </trkpt>
      <trkpt lat="-22.3028310" lon="-48.1670660">
        <ele>614.8</ele>
        <time>2019-12-25T10:34:53Z</time>
      </trkpt>
      <trkpt lat="-22.3028780" lon="-48.1673080">
        <ele>613.8</ele>
        <time>2019-12-25T10:34:57Z</time>
      </trkpt>
      <trkpt lat="-22.3029380" lon="-48.1675250">
        <ele>613.8</ele>
        <time>2019-12-25T10:35:01Z</time>
      </trkpt>
      <trkpt lat="-22.3029900" lon="-48.1677280">
        <ele>612.8</ele>
        <time>2019-12-25T10:35:05Z</time>
      </trkpt>
      <trkpt lat="-22.3030510" lon="-48.1679400">
        <ele>612.6</ele>
        <time>2019-12-25T10:35:09Z</time>
      </trkpt>
      <trkpt lat="-22.3031030" lon="-48.1681410">
        <ele>612.4</ele>
        <time>2019-12-25T10:35:13Z</time>
      </trkpt>
      <trkpt lat="-22.3031430" lon="-48.1683630">
        <ele>611.2</ele>
        <time>2019-12-25T10:35:17Z</time>
      </trkpt>
      <trkpt lat="-22.3031850" lon="-48.1686280">
        <ele>609.4</ele>
        <time>2019-12-25T10:35:21Z</time>
      </trkpt>
      <trkpt lat="-22.3032060" lon="-48.1689330">
        <ele>609.4</ele>
        <time>2019-12-25T10:35:25Z</time>
      </trkpt>
      <trkpt lat="-22.3032260" lon="-48.1692450">
        <ele>607.4</ele>
        <time>2019-12-25T10:35:29Z</time>
      </trkpt>
      <trkpt lat="-22.3032450" lon="-48.1695580">
        <ele>607.4</ele>
        <time>2019-12-25T10:35:33Z</time>
      </trkpt>
      <trkpt lat="-22.3032600" lon="-48.1698980">
        <ele>604.4</ele>
        <time>2019-12-25T10:35:37Z</time>
      </trkpt>
      <trkpt lat="-22.3033080" lon="-48.1702780">
        <ele>603.4</ele>
        <time>2019-12-25T10:35:41Z</time>
      </trkpt>
      <trkpt lat="-22.3033610" lon="-48.1706800">
        <ele>600.8</ele>
        <time>2019-12-25T10:35:45Z</time>
      </trkpt>
      <trkpt lat="-22.3034030" lon="-48.1710880">
        <ele>600.8</ele>
        <time>2019-12-25T10:35:49Z</time>
      </trkpt>
      <trkpt lat="-22.3034530" lon="-48.1715080">
        <ele>597.6</ele>
        <time>2019-12-25T10:35:53Z</time>
      </trkpt>
      <trkpt lat="-22.3034760" lon="-48.1719400">
        <ele>596.6</ele>
        <time>2019-12-25T10:35:57Z</time>
      </trkpt>
      <trkpt lat="-22.3035160" lon="-48.1723760">
        <ele>594.0</ele>
        <time>2019-12-25T10:36:01Z</time>
      </trkpt>
      <trkpt lat="-22.3035330" lon="-48.1728110">
        <ele>592.6</ele>
        <time>2019-12-25T10:36:05Z</time>
      </trkpt>
      <trkpt lat="-22.3035230" lon="-48.1732260">
        <ele>591.6</ele>
        <time>2019-12-25T10:36:09Z</time>
      </trkpt>
      <trkpt lat="-22.3034860" lon="-48.1736100">
        <ele>591.6</ele>
        <time>2019-12-25T10:36:13Z</time>
      </trkpt>
      <trkpt lat="-22.3034850" lon="-48.1739810">
        <ele>588.6</ele>
        <time>2019-12-25T10:36:17Z</time>
      </trkpt>
      <trkpt lat="-22.3034800" lon="-48.1743550">
        <ele>589.6</ele>
        <time>2019-12-25T10:36:21Z</time>
      </trkpt>
      <trkpt lat="-22.3034680" lon="-48.1747280">
        <ele>587.4</ele>
        <time>2019-12-25T10:36:25Z</time>
      </trkpt>
      <trkpt lat="-22.3034460" lon="-48.1751050">
        <ele>585.4</ele>
        <time>2019-12-25T10:36:29Z</time>
      </trkpt>
      <trkpt lat="-22.3034300" lon="-48.1754930">
        <ele>584.4</ele>
        <time>2019-12-25T10:36:33Z</time>
      </trkpt>
      <trkpt lat="-22.3034110" lon="-48.1758830">
        <ele>582.4</ele>
        <time>2019-12-25T10:36:37Z</time>
      </trkpt>
      <trkpt lat="-22.3034030" lon="-48.1762650">
        <ele>581.4</ele>
        <time>2019-12-25T10:36:41Z</time>
      </trkpt>
      <trkpt lat="-22.3033830" lon="-48.1766560">
        <ele>579.0</ele>
        <time>2019-12-25T10:36:45Z</time>
      </trkpt>
      <trkpt lat="-22.3033700" lon="-48.1770480">
        <ele>576.8</ele>
        <time>2019-12-25T10:36:49Z</time>
      </trkpt>
      <trkpt lat="-22.3033530" lon="-48.1774430">
        <ele>576.8</ele>
        <time>2019-12-25T10:36:53Z</time>
      </trkpt>
      <trkpt lat="-22.3033400" lon="-48.1778400">
        <ele>575.6</ele>
        <time>2019-12-25T10:36:57Z</time>
      </trkpt>
      <trkpt lat="-22.3033330" lon="-48.1782180">
        <ele>574.2</ele>
        <time>2019-12-25T10:37:01Z</time>
      </trkpt>
      <trkpt lat="-22.3033200" lon="-48.1785980">
        <ele>573.4</ele>
        <time>2019-12-25T10:37:05Z</time>
      </trkpt>
      <trkpt lat="-22.3033050" lon="-48.1789780">
        <ele>573.4</ele>
        <time>2019-12-25T10:37:09Z</time>
      </trkpt>
      <trkpt lat="-22.3032960" lon="-48.1793360">
        <ele>571.4</ele>
        <time>2019-12-25T10:37:13Z</time>
      </trkpt>
      <trkpt lat="-22.3032850" lon="-48.1796980">
        <ele>570.2</ele>
        <time>2019-12-25T10:37:17Z</time>
      </trkpt>
      <trkpt lat="-22.3032880" lon="-48.1800530">
        <ele>569.2</ele>
        <time>2019-12-25T10:37:21Z</time>
      </trkpt>
      <trkpt lat="-22.3032980" lon="-48.1803800">
        <ele>569.2</ele>
        <time>2019-12-25T10:37:25Z</time>
      </trkpt>
      <trkpt lat="-22.3033230" lon="-48.1806680">
        <ele>567.0</ele>
        <time>2019-12-25T10:37:29Z</time>
      </trkpt>
      <trkpt lat="-22.3033460" lon="-48.1809260">
        <ele>568.0</ele>
        <time>2019-12-25T10:37:33Z</time>
      </trkpt>
      <trkpt lat="-22.3033600" lon="-48.1811580">
        <ele>567.8</ele>
        <time>2019-12-25T10:37:37Z</time>
      </trkpt>
      <trkpt lat="-22.3033710" lon="-48.1813710">
        <ele>568.2</ele>
        <time>2019-12-25T10:37:41Z</time>
      </trkpt>
      <trkpt lat="-22.3034030" lon="-48.1815800">
        <ele>567.8</ele>
        <time>2019-12-25T10:37:45Z</time>
      </trkpt>
      <trkpt lat="-22.3034360" lon="-48.1817980">
        <ele>568.2</ele>
        <time>2019-12-25T10:37:49Z</time>
      </trkpt>
      <trkpt lat="-22.3034630" lon="-48.1820180">
        <ele>568.2</ele>
        <time>2019-12-25T10:37:53Z</time>
      </trkpt>
      <trkpt lat="-22.3034860" lon="-48.1822380">
        <ele>568.8</ele>
        <time>2019-12-25T10:37:57Z</time>
      </trkpt>
      <trkpt lat="-22.3035200" lon="-48.1824560">
        <ele>568.6</ele>
        <time>2019-12-25T10:38:01Z</time>
      </trkpt>
      <trkpt lat="-22.3035430" lon="-48.1826750">
        <ele>568.6</ele>
        <time>2019-12-25T10:38:05Z</time>
      </trkpt>
      <trkpt lat="-22.3035600" lon="-48.1828910">
        <ele>568.6</ele>
        <time>2019-12-25T10:38:09Z</time>
      </trkpt>
      <trkpt lat="-22.3035700" lon="-48.1831110">
        <ele>568.0</ele>
        <time>2019-12-25T10:38:13Z</time>
      </trkpt>
      <trkpt lat="-22.3035600" lon="-48.1833330">
        <ele>569.0</ele>
        <time>2019-12-25T10:38:17Z</time>
      </trkpt>
      <trkpt lat="-22.3035110" lon="-48.1835430">
        <ele>568.0</ele>
        <time>2019-12-25T10:38:21Z</time>
      </trkpt>
      <trkpt lat="-22.3033780" lon="-48.1837100">
        <ele>567.0</ele>
        <time>2019-12-25T10:38:25Z</time>
      </trkpt>
      <trkpt lat="-22.3032210" lon="-48.1838700">
        <ele>567.6</ele>
        <time>2019-12-25T10:38:29Z</time>
      </trkpt>
      <trkpt lat="-22.3030830" lon="-48.1840410">
        <ele>566.6</ele>
        <time>2019-12-25T10:38:33Z</time>
      </trkpt>
      <trkpt lat="-22.3029060" lon="-48.1842580">
        <ele>564.8</ele>
        <time>2019-12-25T10:38:37Z</time>
      </trkpt>
      <trkpt lat="-22.3026950" lon="-48.1844980">
        <ele>563.2</ele>
        <time>2019-12-25T10:38:41Z</time>
      </trkpt>
      <trkpt lat="-22.3024510" lon="-48.1847860">
        <ele>560.2</ele>
        <time>2019-12-25T10:38:45Z</time>
      </trkpt>
      <trkpt lat="-22.3021760" lon="-48.1851230">
        <ele>556.2</ele>
        <time>2019-12-25T10:38:49Z</time>
      </trkpt>
      <trkpt lat="-22.3018750" lon="-48.1854660">
        <ele>552.8</ele>
        <time>2019-12-25T10:38:53Z</time>
      </trkpt>
      <trkpt lat="-22.3015180" lon="-48.1857600">
        <ele>548.8</ele>
        <time>2019-12-25T10:38:57Z</time>
      </trkpt>
      <trkpt lat="-22.3011580" lon="-48.1860310">
        <ele>545.2</ele>
        <time>2019-12-25T10:39:01Z</time>
      </trkpt>
      <trkpt lat="-22.3008410" lon="-48.1862730">
        <ele>544.2</ele>
        <time>2019-12-25T10:39:05Z</time>
      </trkpt>
      <trkpt lat="-22.3006880" lon="-48.1865360">
        <ele>542.2</ele>
        <time>2019-12-25T10:39:09Z</time>
      </trkpt>
      <trkpt lat="-22.3007450" lon="-48.1868300">
        <ele>540.2</ele>
        <time>2019-12-25T10:39:13Z</time>
      </trkpt>
      <trkpt lat="-22.3008730" lon="-48.1871100">
        <ele>536.2</ele>
        <time>2019-12-25T10:39:17Z</time>
      </trkpt>
      <trkpt lat="-22.3010100" lon="-48.1873730">
        <ele>534.2</ele>
        <time>2019-12-25T10:39:21Z</time>
      </trkpt>
      <trkpt lat="-22.3011560" lon="-48.1876710">
        <ele>533.2</ele>
        <time>2019-12-25T10:39:25Z</time>
      </trkpt>
      <trkpt lat="-22.3013130" lon="-48.1879680">
        <ele>530.2</ele>
        <time>2019-12-25T10:39:29Z</time>
      </trkpt>
      <trkpt lat="-22.3014580" lon="-48.1882700">
        <ele>526.2</ele>
        <time>2019-12-25T10:39:33Z</time>
      </trkpt>
      <trkpt lat="-22.3016000" lon="-48.1885830">
        <ele>523.2</ele>
        <time>2019-12-25T10:39:37Z</time>
      </trkpt>
      <trkpt lat="-22.3017550" lon="-48.1888880">
        <ele>521.2</ele>
        <time>2019-12-25T10:39:41Z</time>
      </trkpt>
      <trkpt lat="-22.3019010" lon="-48.1892010">
        <ele>517.2</ele>
        <time>2019-12-25T10:39:45Z</time>
      </trkpt>
      <trkpt lat="-22.3019650" lon="-48.1894960">
        <ele>514.0</ele>
        <time>2019-12-25T10:39:49Z</time>
      </trkpt>
      <trkpt lat="-22.3019330" lon="-48.1898410">
        <ele>512.2</ele>
        <time>2019-12-25T10:39:53Z</time>
      </trkpt>
      <trkpt lat="-22.3018400" lon="-48.1901580">
        <ele>511.4</ele>
        <time>2019-12-25T10:39:57Z</time>
      </trkpt>
      <trkpt lat="-22.3017400" lon="-48.1904210">
        <ele>513.2</ele>
        <time>2019-12-25T10:40:01Z</time>
      </trkpt>
      <trkpt lat="-22.3017150" lon="-48.1906560">
        <ele>512.6</ele>
        <time>2019-12-25T10:40:05Z</time>
      </trkpt>
      <trkpt lat="-22.3017030" lon="-48.1908710">
        <ele>513.6</ele>
        <time>2019-12-25T10:40:09Z</time>
      </trkpt>
      <trkpt lat="-22.3016800" lon="-48.1910660">
        <ele>514.6</ele>
        <time>2019-12-25T10:40:13Z</time>
      </trkpt>
      <trkpt lat="-22.3016310" lon="-48.1912350">
        <ele>514.0</ele>
        <time>2019-12-25T10:40:17Z</time>
      </trkpt>
      <trkpt lat="-22.3015980" lon="-48.1913550">
        <ele>515.8</ele>
        <time>2019-12-25T10:40:21Z</time>
      </trkpt>
      <trkpt lat="-22.3015650" lon="-48.1914910">
        <ele>515.8</ele>
        <time>2019-12-25T10:40:25Z</time>
      </trkpt>
      <trkpt lat="-22.3015310" lon="-48.1916700">
        <ele>516.8</ele>
        <time>2019-12-25T10:40:29Z</time>
      </trkpt>
      <trkpt lat="-22.3014980" lon="-48.1917860">
        <ele>517.8</ele>
        <time>2019-12-25T10:40:33Z</time>
      </trkpt>
      <trkpt lat="-22.3014630" lon="-48.1919060">
        <ele>519.0</ele>
        <time>2019-12-25T10:40:37Z</time>
      </trkpt>
      <trkpt lat="-22.3014310" lon="-48.1920330">
        <ele>519.8</ele>
        <time>2019-12-25T10:40:41Z</time>
      </trkpt>
      <trkpt lat="-22.3014180" lon="-48.1921560">
        <ele>519.6</ele>
        <time>2019-12-25T10:40:45Z</time>
      </trkpt>
      <trkpt lat="-22.3013880" lon="-48.1922880">
        <ele>520.6</ele>
        <time>2019-12-25T10:40:49Z</time>
      </trkpt>
      <trkpt lat="-22.3013530" lon="-48.1924050">
        <ele>521.6</ele>
        <time>2019-12-25T10:40:53Z</time>
      </trkpt>
      <trkpt lat="-22.3013210" lon="-48.1925360">
        <ele>522.0</ele>
        <time>2019-12-25T10:40:57Z</time>
      </trkpt>
      <trkpt lat="-22.3013000" lon="-48.1926550">
        <ele>523.2</ele>
        <time>2019-12-25T10:41:01Z</time>
      </trkpt>
      <trkpt lat="-22.3012780" lon="-48.1927650">
        <ele>525.4</ele>
        <time>2019-12-25T10:41:05Z</time>
      </trkpt>
      <trkpt lat="-22.3012510" lon="-48.1928960">
        <ele>524.8</ele>
        <time>2019-12-25T10:41:09Z</time>
      </trkpt>
      <trkpt lat="-22.3012300" lon="-48.1930210">
        <ele>525.8</ele>
        <time>2019-12-25T10:41:13Z</time>
      </trkpt>
      <trkpt lat="-22.3012080" lon="-48.1931360">
        <ele>526.0</ele>
        <time>2019-12-25T10:41:17Z</time>
      </trkpt>
      <trkpt lat="-22.3011810" lon="-48.1932600">
        <ele>527.0</ele>
        <time>2019-12-25T10:41:21Z</time>
      </trkpt>
      <trkpt lat="-22.3011550" lon="-48.1933800">
        <ele>526.6</ele>
        <time>2019-12-25T10:41:25Z</time>
      </trkpt>
      <trkpt lat="-22.3011260" lon="-48.1935060">
        <ele>527.4</ele>
        <time>2019-12-25T10:41:29Z</time>
      </trkpt>
      <trkpt lat="-22.3011010" lon="-48.1936350">
        <ele>528.6</ele>
        <time>2019-12-25T10:41:33Z</time>
      </trkpt>
      <trkpt lat="-22.3010800" lon="-48.1937530">
        <ele>529.2</ele>
        <time>2019-12-25T10:41:37Z</time>
      </trkpt>
      <trkpt lat="-22.3010530" lon="-48.1938750">
        <ele>529.6</ele>
        <time>2019-12-25T10:41:41Z</time>
      </trkpt>
      <trkpt lat="-22.3010280" lon="-48.1940000">
        <ele>529.6</ele>
        <time>2019-12-25T10:41:45Z</time>
      </trkpt>
      <trkpt lat="-22.3010080" lon="-48.1941150">
        <ele>531.0</ele>
        <time>2019-12-25T10:41:49Z</time>
      </trkpt>
      <trkpt lat="-22.3009830" lon="-48.1942250">
        <ele>531.0</ele>
        <time>2019-12-25T10:41:53Z</time>
      </trkpt>
      <trkpt lat="-22.3009600" lon="-48.1943510">
        <ele>531.4</ele>
        <time>2019-12-25T10:41:57Z</time>
      </trkpt>
      <trkpt lat="-22.3009350" lon="-48.1944730">
        <ele>532.8</ele>
        <time>2019-12-25T10:42:01Z</time>
      </trkpt>
      <trkpt lat="-22.3009100" lon="-48.1945930">
        <ele>533.6</ele>
        <time>2019-12-25T10:42:05Z</time>
      </trkpt>
      <trkpt lat="-22.3008910" lon="-48.1946980">
        <ele>534.4</ele>
        <time>2019-12-25T10:42:09Z</time>
      </trkpt>
      <trkpt lat="-22.3008730" lon="-48.1948200">
        <ele>534.0</ele>
        <time>2019-12-25T10:42:13Z</time>
      </trkpt>
      <trkpt lat="-22.3008530" lon="-48.1949480">
        <ele>534.8</ele>
        <time>2019-12-25T10:42:17Z</time>
      </trkpt>
      <trkpt lat="-22.3008360" lon="-48.1950750">
        <ele>535.0</ele>
        <time>2019-12-25T10:42:21Z</time>
      </trkpt>
      <trkpt lat="-22.3008180" lon="-48.1951950">
        <ele>536.2</ele>
        <time>2019-12-25T10:42:25Z</time>
      </trkpt>
      <trkpt lat="-22.3008010" lon="-48.1953000">
        <ele>536.4</ele>
        <time>2019-12-25T10:42:29Z</time>
      </trkpt>
      <trkpt lat="-22.3007800" lon="-48.1954200">
        <ele>536.8</ele>
        <time>2019-12-25T10:42:33Z</time>
      </trkpt>
      <trkpt lat="-22.3007680" lon="-48.1955480">
        <ele>536.8</ele>
        <time>2019-12-25T10:42:37Z</time>
      </trkpt>
      <trkpt lat="-22.3007500" lon="-48.1956730">
        <ele>537.4</ele>
        <time>2019-12-25T10:42:41Z</time>
      </trkpt>
      <trkpt lat="-22.3007330" lon="-48.1957930">
        <ele>537.4</ele>
        <time>2019-12-25T10:42:45Z</time>
      </trkpt>
      <trkpt lat="-22.3007130" lon="-48.1959210">
        <ele>537.6</ele>
        <time>2019-12-25T10:42:49Z</time>
      </trkpt>
      <trkpt lat="-22.3006930" lon="-48.1960400">
        <ele>538.6</ele>
        <time>2019-12-25T10:42:53Z</time>
      </trkpt>
      <trkpt lat="-22.3006830" lon="-48.1961480">
        <ele>539.4</ele>
        <time>2019-12-25T10:42:57Z</time>
      </trkpt>
      <trkpt lat="-22.3006700" lon="-48.1962760">
        <ele>539.4</ele>
        <time>2019-12-25T10:43:01Z</time>
      </trkpt>
      <trkpt lat="-22.3006550" lon="-48.1964110">
        <ele>539.8</ele>
        <time>2019-12-25T10:43:05Z</time>
      </trkpt>
      <trkpt lat="-22.3006400" lon="-48.1965360">
        <ele>540.0</ele>
        <time>2019-12-25T10:43:09Z</time>
      </trkpt>
      <trkpt lat="-22.3006180" lon="-48.1966600">
        <ele>541.0</ele>
        <time>2019-12-25T10:43:13Z</time>
      </trkpt>
      <trkpt lat="-22.3006060" lon="-48.1967810">
        <ele>541.8</ele>
        <time>2019-12-25T10:43:17Z</time>
      </trkpt>
      <trkpt lat="-22.3006430" lon="-48.1969050">
        <ele>541.0</ele>
        <time>2019-12-25T10:43:21Z</time>
      </trkpt>
      <trkpt lat="-22.3007080" lon="-48.1970100">
        <ele>541.6</ele>
        <time>2019-12-25T10:43:25Z</time>
      </trkpt>
      <trkpt lat="-22.3008060" lon="-48.1970780">
        <ele>541.6</ele>
        <time>2019-12-25T10:43:29Z</time>
      </trkpt>
      <trkpt lat="-22.3009230" lon="-48.1971050">
        <ele>542.4</ele>
        <time>2019-12-25T10:43:33Z</time>
      </trkpt>
      <trkpt lat="-22.3010450" lon="-48.1971230">
        <ele>543.0</ele>
        <time>2019-12-25T10:43:37Z</time>
      </trkpt>
      <trkpt lat="-22.3011610" lon="-48.1971410">
        <ele>543.8</ele>
        <time>2019-12-25T10:43:41Z</time>
      </trkpt>
      <trkpt lat="-22.3012750" lon="-48.1971600">
        <ele>543.8</ele>
        <time>2019-12-25T10:43:45Z</time>
      </trkpt>
      <trkpt lat="-22.3013960" lon="-48.1971780">
        <ele>543.8</ele>
        <time>2019-12-25T10:43:49Z</time>
      </trkpt>
      <trkpt lat="-22.3015210" lon="-48.1971960">
        <ele>544.6</ele>
        <time>2019-12-25T10:43:53Z</time>
      </trkpt>
      <trkpt lat="-22.3016410" lon="-48.1972200">
        <ele>545.2</ele>
        <time>2019-12-25T10:43:57Z</time>
      </trkpt>
      <trkpt lat="-22.3017560" lon="-48.1972380">
        <ele>545.4</ele>
        <time>2019-12-25T10:44:01Z</time>
      </trkpt>
      <trkpt lat="-22.3018830" lon="-48.1972650">
        <ele>545.4</ele>
        <time>2019-12-25T10:44:05Z</time>
      </trkpt>
      <trkpt lat="-22.3020100" lon="-48.1972900">
        <ele>545.4</ele>
        <time>2019-12-25T10:44:09Z</time>
      </trkpt>
      <trkpt lat="-22.3021350" lon="-48.1973150">
        <ele>545.4</ele>
        <time>2019-12-25T10:44:13Z</time>
      </trkpt>
      <trkpt lat="-22.3022580" lon="-48.1973380">
        <ele>546.2</ele>
        <time>2019-12-25T10:44:17Z</time>
      </trkpt>
      <trkpt lat="-22.3023850" lon="-48.1973630">
        <ele>545.8</ele>
        <time>2019-12-25T10:44:21Z</time>
      </trkpt>
      <trkpt lat="-22.3025110" lon="-48.1973880">
        <ele>546.4</ele>
        <time>2019-12-25T10:44:25Z</time>
      </trkpt>
      <trkpt lat="-22.3026530" lon="-48.1974200">
        <ele>546.8</ele>
        <time>2019-12-25T10:44:29Z</time>
      </trkpt>
      <trkpt lat="-22.3027960" lon="-48.1974530">
        <ele>546.4</ele>
        <time>2019-12-25T10:44:33Z</time>
      </trkpt>
      <trkpt lat="-22.3029360" lon="-48.1974830">
        <ele>547.2</ele>
        <time>2019-12-25T10:44:37Z</time>
      </trkpt>
      <trkpt lat="-22.3030600" lon="-48.1975100">
        <ele>547.8</ele>
        <time>2019-12-25T10:44:41Z</time>
      </trkpt>
      <trkpt lat="-22.3031880" lon="-48.1975360">
        <ele>547.2</ele>
        <time>2019-12-25T10:44:45Z</time>
      </trkpt>
      <trkpt lat="-22.3033160" lon="-48.1975650">
        <ele>547.6</ele>
        <time>2019-12-25T10:44:49Z</time>
      </trkpt>
      <trkpt lat="-22.3034430" lon="-48.1975900">
        <ele>547.4</ele>
        <time>2019-12-25T10:44:53Z</time>
      </trkpt>
      <trkpt lat="-22.3035700" lon="-48.1976200">
        <ele>548.0</ele>
        <time>2019-12-25T10:44:57Z</time>
      </trkpt>
      <trkpt lat="-22.3037050" lon="-48.1976480">
        <ele>548.0</ele>
        <time>2019-12-25T10:45:01Z</time>
      </trkpt>
      <trkpt lat="-22.3038480" lon="-48.1976780">
        <ele>547.8</ele>
        <time>2019-12-25T10:45:05Z</time>
      </trkpt>
      <trkpt lat="-22.3039900" lon="-48.1977060">
        <ele>548.4</ele>
        <time>2019-12-25T10:45:09Z</time>
      </trkpt>
      <trkpt lat="-22.3041350" lon="-48.1977360">
        <ele>548.4</ele>
        <time>2019-12-25T10:45:13Z</time>
      </trkpt>
      <trkpt lat="-22.3042830" lon="-48.1977660">
        <ele>548.6</ele>
        <time>2019-12-25T10:45:17Z</time>
      </trkpt>
      <trkpt lat="-22.3044280" lon="-48.1977980">
        <ele>548.6</ele>
        <time>2019-12-25T10:45:21Z</time>
      </trkpt>
      <trkpt lat="-22.3045700" lon="-48.1978330">
        <ele>548.6</ele>
        <time>2019-12-25T10:45:25Z</time>
      </trkpt>
      <trkpt lat="-22.3047130" lon="-48.1978650">
        <ele>548.4</ele>
        <time>2019-12-25T10:45:29Z</time>
      </trkpt>
      <trkpt lat="-22.3048550" lon="-48.1979000">
        <ele>548.6</ele>
        <time>2019-12-25T10:45:33Z</time>
      </trkpt>
      <trkpt lat="-22.3049930" lon="-48.1979380">
        <ele>548.6</ele>
        <time>2019-12-25T10:45:37Z</time>
      </trkpt>
      <trkpt lat="-22.3051350" lon="-48.1979710">
        <ele>548.8</ele>
        <time>2019-12-25T10:45:41Z</time>
      </trkpt>
      <trkpt lat="-22.3052810" lon="-48.1980100">
        <ele>548.2</ele>
        <time>2019-12-25T10:45:45Z</time>
      </trkpt>
      <trkpt lat="-22.3054260" lon="-48.1980550">
        <ele>549.0</ele>
        <time>2019-12-25T10:45:49Z</time>
      </trkpt>
      <trkpt lat="-22.3055760" lon="-48.1980960">
        <ele>548.6</ele>
        <time>2019-12-25T10:45:53Z</time>
      </trkpt>
      <trkpt lat="-22.3056860" lon="-48.1981380">
        <ele>548.8</ele>
        <time>2019-12-25T10:45:57Z</time>
      </trkpt>
      <trkpt lat="-22.3058410" lon="-48.1981900">
        <ele>548.2</ele>
        <time>2019-12-25T10:48:12Z</time>
      </trkpt>
      <trkpt lat="-22.3059530" lon="-48.1982260">
        <ele>548.4</ele>
        <time>2019-12-25T10:48:16Z</time>
      </trkpt>
      <trkpt lat="-22.3060860" lon="-48.1982800">
        <ele>548.2</ele>
        <time>2019-12-25T10:48:20Z</time>
      </trkpt>
      <trkpt lat="-22.3062200" lon="-48.1983330">
        <ele>547.2</ele>
        <time>2019-12-25T10:48:24Z</time>
      </trkpt>
      <trkpt lat="-22.3063610" lon="-48.1983850">
        <ele>547.2</ele>
        <time>2019-12-25T10:48:28Z</time>
      </trkpt>
      <trkpt lat="-22.3065060" lon="-48.1984400">
        <ele>547.2</ele>
        <time>2019-12-25T10:48:32Z</time>
      </trkpt>
      <trkpt lat="-22.3066460" lon="-48.1984980">
        <ele>547.2</ele>
        <time>2019-12-25T10:48:36Z</time>
      </trkpt>
      <trkpt lat="-22.3067860" lon="-48.1985500">
        <ele>547.4</ele>
        <time>2019-12-25T10:48:40Z</time>
      </trkpt>
      <trkpt lat="-22.3069360" lon="-48.1985960">
        <ele>547.4</ele>
        <time>2019-12-25T10:48:44Z</time>
      </trkpt>
      <trkpt lat="-22.3070750" lon="-48.1986380">
        <ele>548.4</ele>
        <time>2019-12-25T10:48:48Z</time>
      </trkpt>
      <trkpt lat="-22.3071900" lon="-48.1986760">
        <ele>549.4</ele>
        <time>2019-12-25T10:48:52Z</time>
      </trkpt>
      <trkpt lat="-22.3073130" lon="-48.1987150">
        <ele>549.8</ele>
        <time>2019-12-25T10:48:56Z</time>
      </trkpt>
      <trkpt lat="-22.3074380" lon="-48.1987360">
        <ele>550.6</ele>
        <time>2019-12-25T10:49:00Z</time>
      </trkpt>
      <trkpt lat="-22.3075500" lon="-48.1987700">
        <ele>552.0</ele>
        <time>2019-12-25T10:49:04Z</time>
      </trkpt>
      <trkpt lat="-22.3076430" lon="-48.1988150">
        <ele>551.4</ele>
        <time>2019-12-25T10:49:08Z</time>
      </trkpt>
      <trkpt lat="-22.3077680" lon="-48.1988580">
        <ele>552.2</ele>
        <time>2019-12-25T10:49:12Z</time>
      </trkpt>
      <trkpt lat="-22.3079010" lon="-48.1988960">
        <ele>552.2</ele>
        <time>2019-12-25T10:49:16Z</time>
      </trkpt>
      <trkpt lat="-22.3080300" lon="-48.1989380">
        <ele>552.8</ele>
        <time>2019-12-25T10:49:20Z</time>
      </trkpt>
      <trkpt lat="-22.3081280" lon="-48.1989660">
        <ele>553.2</ele>
        <time>2019-12-25T10:49:24Z</time>
      </trkpt>
      <trkpt lat="-22.3081950" lon="-48.1989700">
        <ele>552.2</ele>
        <time>2019-12-25T10:49:28Z</time>
      </trkpt>
      <trkpt lat="-22.3082760" lon="-48.1989460">
        <ele>552.2</ele>
        <time>2019-12-25T10:49:32Z</time>
      </trkpt>
      <trkpt lat="-22.3083650" lon="-48.1988980">
        <ele>554.2</ele>
        <time>2019-12-25T10:49:36Z</time>
      </trkpt>
      <trkpt lat="-22.3084360" lon="-48.1988110">
        <ele>554.2</ele>
        <time>2019-12-25T10:49:40Z</time>
      </trkpt>
      <trkpt lat="-22.3085080" lon="-48.1986930">
        <ele>554.6</ele>
        <time>2019-12-25T10:49:44Z</time>
      </trkpt>
      <trkpt lat="-22.3085730" lon="-48.1985710">
        <ele>554.6</ele>
        <time>2019-12-25T10:49:48Z</time>
      </trkpt>
      <trkpt lat="-22.3086280" lon="-48.1984610">
        <ele>555.6</ele>
        <time>2019-12-25T10:49:52Z</time>
      </trkpt>
      <trkpt lat="-22.3086780" lon="-48.1983650">
        <ele>556.0</ele>
        <time>2019-12-25T10:49:56Z</time>
      </trkpt>
      <trkpt lat="-22.3087460" lon="-48.1982360">
        <ele>556.4</ele>
        <time>2019-12-25T10:50:00Z</time>
      </trkpt>
      <trkpt lat="-22.3088150" lon="-48.1981050">
        <ele>556.8</ele>
        <time>2019-12-25T10:50:04Z</time>
      </trkpt>
      <trkpt lat="-22.3088880" lon="-48.1979650">
        <ele>556.2</ele>
        <time>2019-12-25T10:50:08Z</time>
      </trkpt>
      <trkpt lat="-22.3089660" lon="-48.1978150">
        <ele>557.2</ele>
        <time>2019-12-25T10:50:12Z</time>
      </trkpt>
      <trkpt lat="-22.3090450" lon="-48.1976610">
        <ele>558.0</ele>
        <time>2019-12-25T10:50:16Z</time>
      </trkpt>
      <trkpt lat="-22.3091180" lon="-48.1975180">
        <ele>558.6</ele>
        <time>2019-12-25T10:50:20Z</time>
      </trkpt>
      <trkpt lat="-22.3091980" lon="-48.1973800">
        <ele>558.6</ele>
        <time>2019-12-25T10:50:24Z</time>
      </trkpt>
      <trkpt lat="-22.3092780" lon="-48.1972260">
        <ele>558.6</ele>
        <time>2019-12-25T10:50:28Z</time>
      </trkpt>
      <trkpt lat="-22.3093450" lon="-48.1970780">
        <ele>559.6</ele>
        <time>2019-12-25T10:50:32Z</time>
      </trkpt>
      <trkpt lat="-22.3094110" lon="-48.1969630">
        <ele>561.4</ele>
        <time>2019-12-25T10:50:36Z</time>
      </trkpt>
      <trkpt lat="-22.3094680" lon="-48.1968630">
        <ele>561.2</ele>
        <time>2019-12-25T10:50:40Z</time>
      </trkpt>
      <trkpt lat="-22.3095230" lon="-48.1967580">
        <ele>561.2</ele>
        <time>2019-12-25T10:50:44Z</time>
      </trkpt>
      <trkpt lat="-22.3095900" lon="-48.1966430">
        <ele>561.2</ele>
        <time>2019-12-25T10:50:48Z</time>
      </trkpt>
      <trkpt lat="-22.3096560" lon="-48.1965160">
        <ele>561.2</ele>
        <time>2019-12-25T10:50:52Z</time>
      </trkpt>
      <trkpt lat="-22.3097160" lon="-48.1963950">
        <ele>562.6</ele>
        <time>2019-12-25T10:50:56Z</time>
      </trkpt>
      <trkpt lat="-22.3097710" lon="-48.1962900">
        <ele>562.0</ele>
        <time>2019-12-25T10:51:00Z</time>
      </trkpt>
      <trkpt lat="-22.3098160" lon="-48.1961680">
        <ele>562.0</ele>
        <time>2019-12-25T10:51:04Z</time>
      </trkpt>
      <trkpt lat="-22.3098850" lon="-48.1960550">
        <ele>562.8</ele>
        <time>2019-12-25T10:51:08Z</time>
      </trkpt>
      <trkpt lat="-22.3099500" lon="-48.1959430">
        <ele>563.4</ele>
        <time>2019-12-25T10:51:12Z</time>
      </trkpt>
      <trkpt lat="-22.3099960" lon="-48.1958380">
        <ele>563.4</ele>
        <time>2019-12-25T10:51:16Z</time>
      </trkpt>
      <trkpt lat="-22.3100510" lon="-48.1957330">
        <ele>563.4</ele>
        <time>2019-12-25T10:51:20Z</time>
      </trkpt>
      <trkpt lat="-22.3101310" lon="-48.1956050">
        <ele>563.4</ele>
        <time>2019-12-25T10:51:24Z</time>
      </trkpt>
      <trkpt lat="-22.3102200" lon="-48.1955010">
        <ele>563.4</ele>
        <time>2019-12-25T10:51:28Z</time>
      </trkpt>
      <trkpt lat="-22.3103010" lon="-48.1953960">
        <ele>563.4</ele>
        <time>2019-12-25T10:51:32Z</time>
      </trkpt>
      <trkpt lat="-22.3103930" lon="-48.1953000">
        <ele>563.4</ele>
        <time>2019-12-25T10:51:36Z</time>
      </trkpt>
      <trkpt lat="-22.3104880" lon="-48.1952110">
        <ele>564.2</ele>
        <time>2019-12-25T10:51:40Z</time>
      </trkpt>
      <trkpt lat="-22.3105860" lon="-48.1951330">
        <ele>564.2</ele>
        <time>2019-12-25T10:51:44Z</time>
      </trkpt>
      <trkpt lat="-22.3106780" lon="-48.1950560">
        <ele>564.2</ele>
        <time>2019-12-25T10:51:48Z</time>
      </trkpt>
      <trkpt lat="-22.3107980" lon="-48.1949610">
        <ele>563.4</ele>
        <time>2019-12-25T10:51:52Z</time>
      </trkpt>
      <trkpt lat="-22.3109410" lon="-48.1948500">
        <ele>563.4</ele>
        <time>2019-12-25T10:51:56Z</time>
      </trkpt>
      <trkpt lat="-22.3110650" lon="-48.1947510">
        <ele>562.8</ele>
        <time>2019-12-25T10:52:00Z</time>
      </trkpt>
      <trkpt lat="-22.3112100" lon="-48.1946530">
        <ele>562.4</ele>
        <time>2019-12-25T10:52:04Z</time>
      </trkpt>
      <trkpt lat="-22.3114000" lon="-48.1945160">
        <ele>561.2</ele>
        <time>2019-12-25T10:52:08Z</time>
      </trkpt>
      <trkpt lat="-22.3115950" lon="-48.1943830">
        <ele>561.0</ele>
        <time>2019-12-25T10:52:12Z</time>
      </trkpt>
      <trkpt lat="-22.3117850" lon="-48.1942450">
        <ele>560.0</ele>
        <time>2019-12-25T10:52:16Z</time>
      </trkpt>
      <trkpt lat="-22.3119650" lon="-48.1941160">
        <ele>560.0</ele>
        <time>2019-12-25T10:52:20Z</time>
      </trkpt>
      <trkpt lat="-22.3121330" lon="-48.1939960">
        <ele>559.6</ele>
        <time>2019-12-25T10:52:24Z</time>
      </trkpt>
      <trkpt lat="-22.3122930" lon="-48.1938780">
        <ele>559.6</ele>
        <time>2019-12-25T10:52:28Z</time>
      </trkpt>
      <trkpt lat="-22.3124600" lon="-48.1937500">
        <ele>560.2</ele>
        <time>2019-12-25T10:52:32Z</time>
      </trkpt>
      <trkpt lat="-22.3126200" lon="-48.1936180">
        <ele>559.4</ele>
        <time>2019-12-25T10:52:36Z</time>
      </trkpt>
      <trkpt lat="-22.3127750" lon="-48.1934880">
        <ele>559.6</ele>
        <time>2019-12-25T10:52:40Z</time>
      </trkpt>
      <trkpt lat="-22.3129260" lon="-48.1933550">
        <ele>559.6</ele>
        <time>2019-12-25T10:52:44Z</time>
      </trkpt>
      <trkpt lat="-22.3130680" lon="-48.1932080">
        <ele>559.4</ele>
        <time>2019-12-25T10:52:48Z</time>
      </trkpt>
      <trkpt lat="-22.3131950" lon="-48.1930630">
        <ele>559.6</ele>
        <time>2019-12-25T10:52:52Z</time>
      </trkpt>
      <trkpt lat="-22.3133250" lon="-48.1929130">
        <ele>559.6</ele>
        <time>2019-12-25T10:52:56Z</time>
      </trkpt>
      <trkpt lat="-22.3134610" lon="-48.1927560">
        <ele>559.2</ele>
        <time>2019-12-25T10:53:00Z</time>
      </trkpt>
      <trkpt lat="-22.3135900" lon="-48.1926060">
        <ele>558.8</ele>
        <time>2019-12-25T10:53:04Z</time>
      </trkpt>
      <trkpt lat="-22.3137130" lon="-48.1924660">
        <ele>559.2</ele>
        <time>2019-12-25T10:53:08Z</time>
      </trkpt>
      <trkpt lat="-22.3138380" lon="-48.1923300">
        <ele>559.2</ele>
        <time>2019-12-25T10:53:12Z</time>
      </trkpt>
      <trkpt lat="-22.3139660" lon="-48.1921810">
        <ele>559.2</ele>
        <time>2019-12-25T10:53:16Z</time>
      </trkpt>
      <trkpt lat="-22.3140980" lon="-48.1920310">
        <ele>559.4</ele>
        <time>2019-12-25T10:53:20Z</time>
      </trkpt>
      <trkpt lat="-22.3142380" lon="-48.1918800">
        <ele>559.0</ele>
        <time>2019-12-25T10:53:24Z</time>
      </trkpt>
      <trkpt lat="-22.3143800" lon="-48.1917210">
        <ele>557.8</ele>
        <time>2019-12-25T10:53:28Z</time>
      </trkpt>
      <trkpt lat="-22.3145180" lon="-48.1915630">
        <ele>558.0</ele>
        <time>2019-12-25T10:53:32Z</time>
      </trkpt>
      <trkpt lat="-22.3146610" lon="-48.1914050">
        <ele>558.4</ele>
        <time>2019-12-25T10:53:36Z</time>
      </trkpt>
      <trkpt lat="-22.3148030" lon="-48.1912460">
        <ele>558.0</ele>
        <time>2019-12-25T10:53:40Z</time>
      </trkpt>
      <trkpt lat="-22.3149450" lon="-48.1910880">
        <ele>558.6</ele>
        <time>2019-12-25T10:53:44Z</time>
      </trkpt>
      <trkpt lat="-22.3150810" lon="-48.1909380">
        <ele>559.6</ele>
        <time>2019-12-25T10:53:48Z</time>
      </trkpt>
      <trkpt lat="-22.3151960" lon="-48.1908130">
        <ele>559.6</ele>
        <time>2019-12-25T10:53:52Z</time>
      </trkpt>
      <trkpt lat="-22.3152910" lon="-48.1907060">
        <ele>560.6</ele>
        <time>2019-12-25T10:53:56Z</time>
      </trkpt>
      <trkpt lat="-22.3154010" lon="-48.1905860">
        <ele>560.2</ele>
        <time>2019-12-25T10:54:00Z</time>
      </trkpt>
      <trkpt lat="-22.3155080" lon="-48.1904630">
        <ele>561.0</ele>
        <time>2019-12-25T10:54:04Z</time>
      </trkpt>
      <trkpt lat="-22.3156130" lon="-48.1903480">
        <ele>561.4</ele>
        <time>2019-12-25T10:54:08Z</time>
      </trkpt>
      <trkpt lat="-22.3157060" lon="-48.1902430">
        <ele>561.2</ele>
        <time>2019-12-25T10:54:12Z</time>
      </trkpt>
      <trkpt lat="-22.3157680" lon="-48.1901700">
        <ele>560.6</ele>
        <time>2019-12-25T10:54:16Z</time>
      </trkpt>
      <trkpt lat="-22.3158210" lon="-48.1901230">
        <ele>561.8</ele>
        <time>2019-12-25T10:54:20Z</time>
      </trkpt>
      <trkpt lat="-22.3158830" lon="-48.1900350">
        <ele>561.0</ele>
        <time>2019-12-25T10:54:24Z</time>
      </trkpt>
      <trkpt lat="-22.3159430" lon="-48.1899050">
        <ele>561.4</ele>
        <time>2019-12-25T10:54:28Z</time>
      </trkpt>
      <trkpt lat="-22.3159650" lon="-48.1897680">
        <ele>561.6</ele>
        <time>2019-12-25T10:54:32Z</time>
      </trkpt>
      <trkpt lat="-22.3159400" lon="-48.1896160">
        <ele>561.4</ele>
        <time>2019-12-25T10:54:36Z</time>
      </trkpt>
      <trkpt lat="-22.3159180" lon="-48.1894550">
        <ele>561.4</ele>
        <time>2019-12-25T10:54:40Z</time>
      </trkpt>
      <trkpt lat="-22.3159000" lon="-48.1892730">
        <ele>561.2</ele>
        <time>2019-12-25T10:54:44Z</time>
      </trkpt>
      <trkpt lat="-22.3158760" lon="-48.1890730">
        <ele>560.6</ele>
        <time>2019-12-25T10:54:48Z</time>
      </trkpt>
      <trkpt lat="-22.3158600" lon="-48.1888650">
        <ele>560.0</ele>
        <time>2019-12-25T10:54:52Z</time>
      </trkpt>
      <trkpt lat="-22.3158380" lon="-48.1886310">
        <ele>558.8</ele>
        <time>2019-12-25T10:54:56Z</time>
      </trkpt>
      <trkpt lat="-22.3158110" lon="-48.1883700">
        <ele>557.8</ele>
        <time>2019-12-25T10:55:00Z</time>
      </trkpt>
      <trkpt lat="-22.3157780" lon="-48.1880600">
        <ele>556.4</ele>
        <time>2019-12-25T10:55:04Z</time>
      </trkpt>
      <trkpt lat="-22.3157430" lon="-48.1877300">
        <ele>555.2</ele>
        <time>2019-12-25T10:55:08Z</time>
      </trkpt>
      <trkpt lat="-22.3157060" lon="-48.1874010">
        <ele>553.8</ele>
        <time>2019-12-25T10:55:12Z</time>
      </trkpt>
      <trkpt lat="-22.3156680" lon="-48.1870500">
        <ele>552.8</ele>
        <time>2019-12-25T10:55:16Z</time>
      </trkpt>
      <trkpt lat="-22.3156310" lon="-48.1866880">
        <ele>549.8</ele>
        <time>2019-12-25T10:55:20Z</time>
      </trkpt>
      <trkpt lat="-22.3155670" lon="-48.1859870">
        <ele>548.0</ele>
        <time>2019-12-25T10:55:24Z</time>
      </trkpt>
      <trkpt lat="-22.3155360" lon="-48.1856680">
        <ele>545.8</ele>
        <time>2019-12-25T10:55:28Z</time>
      </trkpt>
      <trkpt lat="-22.3154850" lon="-48.1852110">
        <ele>543.8</ele>
        <time>2019-12-25T10:55:32Z</time>
      </trkpt>
      <trkpt lat="-22.3154330" lon="-48.1847460">
        <ele>540.2</ele>
        <time>2019-12-25T10:55:36Z</time>
      </trkpt>
      <trkpt lat="-22.3153880" lon="-48.1842610">
        <ele>539.2</ele>
        <time>2019-12-25T10:55:40Z</time>
      </trkpt>
      <trkpt lat="-22.3153380" lon="-48.1837730">
        <ele>535.2</ele>
        <time>2019-12-25T10:55:44Z</time>
      </trkpt>
      <trkpt lat="-22.3152910" lon="-48.1833430">
        <ele>531.2</ele>
        <time>2019-12-25T10:55:48Z</time>
      </trkpt>
      <trkpt lat="-22.3152430" lon="-48.1829050">
        <ele>528.2</ele>
        <time>2019-12-25T10:55:52Z</time>
      </trkpt>
      <trkpt lat="-22.3152280" lon="-48.1824180">
        <ele>526.2</ele>
        <time>2019-12-25T10:55:56Z</time>
      </trkpt>
      <trkpt lat="-22.3151810" lon="-48.1819280">
        <ele>522.2</ele>
        <time>2019-12-25T10:56:00Z</time>
      </trkpt>
      <trkpt lat="-22.3151130" lon="-48.1814830">
        <ele>521.8</ele>
        <time>2019-12-25T10:56:04Z</time>
      </trkpt>
      <trkpt lat="-22.3151100" lon="-48.1810830">
        <ele>520.4</ele>
        <time>2019-12-25T10:56:08Z</time>
      </trkpt>
      <trkpt lat="-22.3151380" lon="-48.1807350">
        <ele>520.4</ele>
        <time>2019-12-25T10:56:12Z</time>
      </trkpt>
      <trkpt lat="-22.3151750" lon="-48.1804410">
        <ele>520.2</ele>
        <time>2019-12-25T10:56:16Z</time>
      </trkpt>
      <trkpt lat="-22.3151750" lon="-48.1802100">
        <ele>520.8</ele>
        <time>2019-12-25T10:56:20Z</time>
      </trkpt>
      <trkpt lat="-22.3151810" lon="-48.1800330">
        <ele>521.4</ele>
        <time>2019-12-25T10:56:24Z</time>
      </trkpt>
      <trkpt lat="-22.3151980" lon="-48.1798660">
        <ele>521.4</ele>
        <time>2019-12-25T10:56:28Z</time>
      </trkpt>
      <trkpt lat="-22.3152180" lon="-48.1797260">
        <ele>521.4</ele>
        <time>2019-12-25T10:56:32Z</time>
      </trkpt>
      <trkpt lat="-22.3152210" lon="-48.1795610">
        <ele>521.4</ele>
        <time>2019-12-25T10:56:36Z</time>
      </trkpt>
      <trkpt lat="-22.3152360" lon="-48.1794160">
        <ele>521.4</ele>
        <time>2019-12-25T10:56:40Z</time>
      </trkpt>
      <trkpt lat="-22.3152600" lon="-48.1792830">
        <ele>522.6</ele>
        <time>2019-12-25T10:56:44Z</time>
      </trkpt>
      <trkpt lat="-22.3152760" lon="-48.1791500">
        <ele>524.6</ele>
        <time>2019-12-25T10:56:48Z</time>
      </trkpt>
      <trkpt lat="-22.3153060" lon="-48.1790060">
        <ele>523.0</ele>
        <time>2019-12-25T10:56:52Z</time>
      </trkpt>
      <trkpt lat="-22.3153380" lon="-48.1788730">
        <ele>523.0</ele>
        <time>2019-12-25T10:56:56Z</time>
      </trkpt>
      <trkpt lat="-22.3153760" lon="-48.1787350">
        <ele>523.4</ele>
        <time>2019-12-25T10:57:00Z</time>
      </trkpt>
      <trkpt lat="-22.3154060" lon="-48.1785860">
        <ele>523.4</ele>
        <time>2019-12-25T10:57:04Z</time>
      </trkpt>
      <trkpt lat="-22.3154280" lon="-48.1784380">
        <ele>523.4</ele>
        <time>2019-12-25T10:57:08Z</time>
      </trkpt>
      <trkpt lat="-22.3154530" lon="-48.1782850">
        <ele>523.8</ele>
        <time>2019-12-25T10:57:12Z</time>
      </trkpt>
      <trkpt lat="-22.3154730" lon="-48.1781310">
        <ele>523.8</ele>
        <time>2019-12-25T10:57:16Z</time>
      </trkpt>
      <trkpt lat="-22.3154880" lon="-48.1779830">
        <ele>524.6</ele>
        <time>2019-12-25T10:57:20Z</time>
      </trkpt>
      <trkpt lat="-22.3155010" lon="-48.1778430">
        <ele>525.6</ele>
        <time>2019-12-25T10:57:24Z</time>
      </trkpt>
      <trkpt lat="-22.3155230" lon="-48.1777000">
        <ele>525.2</ele>
        <time>2019-12-25T10:57:28Z</time>
      </trkpt>
      <trkpt lat="-22.3155480" lon="-48.1775550">
        <ele>525.8</ele>
        <time>2019-12-25T10:57:32Z</time>
      </trkpt>
      <trkpt lat="-22.3155730" lon="-48.1774200">
        <ele>525.8</ele>
        <time>2019-12-25T10:57:36Z</time>
      </trkpt>
      <trkpt lat="-22.3155950" lon="-48.1772930">
        <ele>527.0</ele>
        <time>2019-12-25T10:57:40Z</time>
      </trkpt>
      <trkpt lat="-22.3156130" lon="-48.1771980">
        <ele>527.4</ele>
        <time>2019-12-25T10:57:44Z</time>
      </trkpt>
      <trkpt lat="-22.3156260" lon="-48.1771030">
        <ele>528.0</ele>
        <time>2019-12-25T10:57:48Z</time>
      </trkpt>
      <trkpt lat="-22.3156380" lon="-48.1770150">
        <ele>529.0</ele>
        <time>2019-12-25T10:57:52Z</time>
      </trkpt>
      <trkpt lat="-22.3156530" lon="-48.1769310">
        <ele>529.8</ele>
        <time>2019-12-25T10:57:56Z</time>
      </trkpt>
      <trkpt lat="-22.3156660" lon="-48.1768450">
        <ele>530.4</ele>
        <time>2019-12-25T10:58:00Z</time>
      </trkpt>
      <trkpt lat="-22.3156830" lon="-48.1767580">
        <ele>531.2</ele>
        <time>2019-12-25T10:58:04Z</time>
      </trkpt>
      <trkpt lat="-22.3156980" lon="-48.1766660">
        <ele>531.8</ele>
        <time>2019-12-25T10:58:08Z</time>
      </trkpt>
      <trkpt lat="-22.3157230" lon="-48.1765800">
        <ele>532.4</ele>
        <time>2019-12-25T10:58:12Z</time>
      </trkpt>
      <trkpt lat="-22.3157380" lon="-48.1764930">
        <ele>533.4</ele>
        <time>2019-12-25T10:58:16Z</time>
      </trkpt>
      <trkpt lat="-22.3157450" lon="-48.1764080">
        <ele>533.6</ele>
        <time>2019-12-25T10:58:20Z</time>
      </trkpt>
      <trkpt lat="-22.3157600" lon="-48.1763210">
        <ele>535.6</ele>
        <time>2019-12-25T10:58:24Z</time>
      </trkpt>
      <trkpt lat="-22.3157660" lon="-48.1762350">
        <ele>536.2</ele>
        <time>2019-12-25T10:58:28Z</time>
      </trkpt>
      <trkpt lat="-22.3157830" lon="-48.1761560">
        <ele>537.4</ele>
        <time>2019-12-25T10:58:32Z</time>
      </trkpt>
      <trkpt lat="-22.3157900" lon="-48.1760680">
        <ele>537.6</ele>
        <time>2019-12-25T10:58:36Z</time>
      </trkpt>
      <trkpt lat="-22.3158030" lon="-48.1759910">
        <ele>538.4</ele>
        <time>2019-12-25T10:58:40Z</time>
      </trkpt>
      <trkpt lat="-22.3158180" lon="-48.1759100">
        <ele>539.4</ele>
        <time>2019-12-25T10:58:44Z</time>
      </trkpt>
      <trkpt lat="-22.3158310" lon="-48.1758310">
        <ele>540.0</ele>
        <time>2019-12-25T10:58:48Z</time>
      </trkpt>
      <trkpt lat="-22.3158410" lon="-48.1757480">
        <ele>540.4</ele>
        <time>2019-12-25T10:58:52Z</time>
      </trkpt>
      <trkpt lat="-22.3158480" lon="-48.1756650">
        <ele>541.0</ele>
        <time>2019-12-25T10:58:56Z</time>
      </trkpt>
      <trkpt lat="-22.3158700" lon="-48.1755860">
        <ele>541.6</ele>
        <time>2019-12-25T10:59:00Z</time>
      </trkpt>
      <trkpt lat="-22.3158810" lon="-48.1755160">
        <ele>541.8</ele>
        <time>2019-12-25T10:59:04Z</time>
      </trkpt>
      <trkpt lat="-22.3158830" lon="-48.1754410">
        <ele>542.6</ele>
        <time>2019-12-25T10:59:08Z</time>
      </trkpt>
      <trkpt lat="-22.3158980" lon="-48.1753700">
        <ele>542.6</ele>
        <time>2019-12-25T10:59:12Z</time>
      </trkpt>
      <trkpt lat="-22.3159150" lon="-48.1752960">
        <ele>542.6</ele>
        <time>2019-12-25T10:59:16Z</time>
      </trkpt>
      <trkpt lat="-22.3159300" lon="-48.1752260">
        <ele>543.0</ele>
        <time>2019-12-25T10:59:20Z</time>
      </trkpt>
      <trkpt lat="-22.3159410" lon="-48.1751600">
        <ele>543.6</ele>
        <time>2019-12-25T10:59:24Z</time>
      </trkpt>
      <trkpt lat="-22.3159480" lon="-48.1750980">
        <ele>544.4</ele>
        <time>2019-12-25T10:59:28Z</time>
      </trkpt>
      <trkpt lat="-22.3159410" lon="-48.1750350">
        <ele>544.4</ele>
        <time>2019-12-25T10:59:32Z</time>
      </trkpt>
      <trkpt lat="-22.3159330" lon="-48.1749660">
        <ele>545.2</ele>
        <time>2019-12-25T10:59:36Z</time>
      </trkpt>
      <trkpt lat="-22.3159410" lon="-48.1748930">
        <ele>545.2</ele>
        <time>2019-12-25T10:59:40Z</time>
      </trkpt>
      <trkpt lat="-22.3159550" lon="-48.1748210">
        <ele>545.0</ele>
        <time>2019-12-25T10:59:44Z</time>
      </trkpt>
      <trkpt lat="-22.3159750" lon="-48.1747530">
        <ele>545.0</ele>
        <time>2019-12-25T10:59:48Z</time>
      </trkpt>
      <trkpt lat="-22.3160000" lon="-48.1746850">
        <ele>545.8</ele>
        <time>2019-12-25T10:59:52Z</time>
      </trkpt>
      <trkpt lat="-22.3160110" lon="-48.1746160">
        <ele>545.8</ele>
        <time>2019-12-25T10:59:56Z</time>
      </trkpt>
      <trkpt lat="-22.3160300" lon="-48.1745430">
        <ele>546.6</ele>
        <time>2019-12-25T11:00:00Z</time>
      </trkpt>
      <trkpt lat="-22.3160460" lon="-48.1744780">
        <ele>547.2</ele>
        <time>2019-12-25T11:00:04Z</time>
      </trkpt>
      <trkpt lat="-22.3160580" lon="-48.1744160">
        <ele>547.8</ele>
        <time>2019-12-25T11:00:08Z</time>
      </trkpt>
      <trkpt lat="-22.3160730" lon="-48.1743500">
        <ele>547.8</ele>
        <time>2019-12-25T11:00:12Z</time>
      </trkpt>
      <trkpt lat="-22.3160880" lon="-48.1742710">
        <ele>547.8</ele>
        <time>2019-12-25T11:00:16Z</time>
      </trkpt>
      <trkpt lat="-22.3161010" lon="-48.1741800">
        <ele>548.0</ele>
        <time>2019-12-25T11:00:20Z</time>
      </trkpt>
      <trkpt lat="-22.3161100" lon="-48.1740930">
        <ele>548.0</ele>
        <time>2019-12-25T11:00:24Z</time>
      </trkpt>
      <trkpt lat="-22.3161210" lon="-48.1739960">
        <ele>548.0</ele>
        <time>2019-12-25T11:00:28Z</time>
      </trkpt>
      <trkpt lat="-22.3161310" lon="-48.1739000">
        <ele>548.6</ele>
        <time>2019-12-25T11:00:32Z</time>
      </trkpt>
      <trkpt lat="-22.3161410" lon="-48.1738050">
        <ele>548.8</ele>
        <time>2019-12-25T11:00:36Z</time>
      </trkpt>
      <trkpt lat="-22.3161510" lon="-48.1737110">
        <ele>549.4</ele>
        <time>2019-12-25T11:00:40Z</time>
      </trkpt>
      <trkpt lat="-22.3161610" lon="-48.1736230">
        <ele>550.2</ele>
        <time>2019-12-25T11:00:44Z</time>
      </trkpt>
      <trkpt lat="-22.3161850" lon="-48.1735360">
        <ele>549.6</ele>
        <time>2019-12-25T11:00:48Z</time>
      </trkpt>
      <trkpt lat="-22.3162100" lon="-48.1734400">
        <ele>549.6</ele>
        <time>2019-12-25T11:00:52Z</time>
      </trkpt>
      <trkpt lat="-22.3162430" lon="-48.1733400">
        <ele>550.0</ele>
        <time>2019-12-25T11:00:56Z</time>
      </trkpt>
      <trkpt lat="-22.3162580" lon="-48.1732400">
        <ele>550.0</ele>
        <time>2019-12-25T11:01:00Z</time>
      </trkpt>
      <trkpt lat="-22.3162660" lon="-48.1731330">
        <ele>550.0</ele>
        <time>2019-12-25T11:01:04Z</time>
      </trkpt>
      <trkpt lat="-22.3162810" lon="-48.1730310">
        <ele>550.4</ele>
        <time>2019-12-25T11:01:08Z</time>
      </trkpt>
      <trkpt lat="-22.3162930" lon="-48.1729230">
        <ele>550.4</ele>
        <time>2019-12-25T11:01:12Z</time>
      </trkpt>
      <trkpt lat="-22.3163050" lon="-48.1728030">
        <ele>551.0</ele>
        <time>2019-12-25T11:01:16Z</time>
      </trkpt>
      <trkpt lat="-22.3163180" lon="-48.1726780">
        <ele>551.2</ele>
        <time>2019-12-25T11:01:20Z</time>
      </trkpt>
      <trkpt lat="-22.3163360" lon="-48.1725580">
        <ele>551.6</ele>
        <time>2019-12-25T11:01:24Z</time>
      </trkpt>
      <trkpt lat="-22.3163500" lon="-48.1724310">
        <ele>552.0</ele>
        <time>2019-12-25T11:01:28Z</time>
      </trkpt>
      <trkpt lat="-22.3163650" lon="-48.1723080">
        <ele>552.6</ele>
        <time>2019-12-25T11:01:32Z</time>
      </trkpt>
      <trkpt lat="-22.3163830" lon="-48.1721930">
        <ele>552.6</ele>
        <time>2019-12-25T11:01:36Z</time>
      </trkpt>
      <trkpt lat="-22.3164000" lon="-48.1720650">
        <ele>552.8</ele>
        <time>2019-12-25T11:01:40Z</time>
      </trkpt>
      <trkpt lat="-22.3164210" lon="-48.1719400">
        <ele>552.8</ele>
        <time>2019-12-25T11:01:44Z</time>
      </trkpt>
      <trkpt lat="-22.3164430" lon="-48.1718100">
        <ele>553.0</ele>
        <time>2019-12-25T11:01:48Z</time>
      </trkpt>
      <trkpt lat="-22.3164530" lon="-48.1716780">
        <ele>553.0</ele>
        <time>2019-12-25T11:01:52Z</time>
      </trkpt>
      <trkpt lat="-22.3164660" lon="-48.1715510">
        <ele>553.4</ele>
        <time>2019-12-25T11:01:56Z</time>
      </trkpt>
      <trkpt lat="-22.3164760" lon="-48.1714210">
        <ele>553.2</ele>
        <time>2019-12-25T11:02:00Z</time>
      </trkpt>
      <trkpt lat="-22.3164950" lon="-48.1712900">
        <ele>553.0</ele>
        <time>2019-12-25T11:02:04Z</time>
      </trkpt>
      <trkpt lat="-22.3165260" lon="-48.1711600">
        <ele>553.6</ele>
        <time>2019-12-25T11:02:08Z</time>
      </trkpt>
      <trkpt lat="-22.3165600" lon="-48.1710310">
        <ele>553.6</ele>
        <time>2019-12-25T11:02:12Z</time>
      </trkpt>
      <trkpt lat="-22.3165750" lon="-48.1708860">
        <ele>553.6</ele>
        <time>2019-12-25T11:02:16Z</time>
      </trkpt>
      <trkpt lat="-22.3165850" lon="-48.1707530">
        <ele>552.8</ele>
        <time>2019-12-25T11:02:20Z</time>
      </trkpt>
      <trkpt lat="-22.3166130" lon="-48.1706150">
        <ele>553.8</ele>
        <time>2019-12-25T11:02:24Z</time>
      </trkpt>
      <trkpt lat="-22.3166450" lon="-48.1704710">
        <ele>553.4</ele>
        <time>2019-12-25T11:02:28Z</time>
      </trkpt>
      <trkpt lat="-22.3166700" lon="-48.1703480">
        <ele>554.0</ele>
        <time>2019-12-25T11:02:32Z</time>
      </trkpt>
      <trkpt lat="-22.3166960" lon="-48.1702100">
        <ele>553.6</ele>
        <time>2019-12-25T11:02:36Z</time>
      </trkpt>
      <trkpt lat="-22.3167100" lon="-48.1700680">
        <ele>553.8</ele>
        <time>2019-12-25T11:02:40Z</time>
      </trkpt>
      <trkpt lat="-22.3167300" lon="-48.1699400">
        <ele>554.2</ele>
        <time>2019-12-25T11:02:44Z</time>
      </trkpt>
      <trkpt lat="-22.3167480" lon="-48.1698580">
        <ele>554.6</ele>
        <time>2019-12-25T11:02:48Z</time>
      </trkpt>
      <trkpt lat="-22.3167480" lon="-48.1698580">
        <ele>553.6</ele>
        <time>2019-12-25T11:02:52Z</time>
      </trkpt>
      <trkpt lat="-22.3165360" lon="-48.1691180">
        <ele>558.8</ele>
        <time>2019-12-25T11:05:24Z</time>
      </trkpt>
      <trkpt lat="-22.3165260" lon="-48.1690130">
        <ele>559.2</ele>
        <time>2019-12-25T11:05:28Z</time>
      </trkpt>
      <trkpt lat="-22.3165210" lon="-48.1689400">
        <ele>559.2</ele>
        <time>2019-12-25T11:05:32Z</time>
      </trkpt>
      <trkpt lat="-22.3165150" lon="-48.1688650">
        <ele>560.6</ele>
        <time>2019-12-25T11:05:36Z</time>
      </trkpt>
      <trkpt lat="-22.3165160" lon="-48.1687910">
        <ele>560.6</ele>
        <time>2019-12-25T11:05:40Z</time>
      </trkpt>
      <trkpt lat="-22.3165010" lon="-48.1687450">
        <ele>561.4</ele>
        <time>2019-12-25T11:05:44Z</time>
      </trkpt>
      <trkpt lat="-22.3164900" lon="-48.1686900">
        <ele>562.4</ele>
        <time>2019-12-25T11:05:48Z</time>
      </trkpt>
      <trkpt lat="-22.3164710" lon="-48.1686310">
        <ele>561.6</ele>
        <time>2019-12-25T11:05:52Z</time>
      </trkpt>
      <trkpt lat="-22.3164560" lon="-48.1685600">
        <ele>562.0</ele>
        <time>2019-12-25T11:05:56Z</time>
      </trkpt>
      <trkpt lat="-22.3164400" lon="-48.1684680">
        <ele>563.0</ele>
        <time>2019-12-25T11:06:00Z</time>
      </trkpt>
      <trkpt lat="-22.3164180" lon="-48.1683750">
        <ele>563.0</ele>
        <time>2019-12-25T11:06:04Z</time>
      </trkpt>
      <trkpt lat="-22.3164000" lon="-48.1682860">
        <ele>563.4</ele>
        <time>2019-12-25T11:06:08Z</time>
      </trkpt>
      <trkpt lat="-22.3163850" lon="-48.1682100">
        <ele>565.0</ele>
        <time>2019-12-25T11:06:12Z</time>
      </trkpt>
      <trkpt lat="-22.3163730" lon="-48.1681330">
        <ele>565.4</ele>
        <time>2019-12-25T11:06:16Z</time>
      </trkpt>
      <trkpt lat="-22.3163500" lon="-48.1680380">
        <ele>565.0</ele>
        <time>2019-12-25T11:06:20Z</time>
      </trkpt>
      <trkpt lat="-22.3163300" lon="-48.1679330">
        <ele>565.0</ele>
        <time>2019-12-25T11:06:24Z</time>
      </trkpt>
      <trkpt lat="-22.3163130" lon="-48.1678050">
        <ele>565.6</ele>
        <time>2019-12-25T11:06:28Z</time>
      </trkpt>
      <trkpt lat="-22.3162860" lon="-48.1676810">
        <ele>566.2</ele>
        <time>2019-12-25T11:06:32Z</time>
      </trkpt>
      <trkpt lat="-22.3162510" lon="-48.1675450">
        <ele>566.0</ele>
        <time>2019-12-25T11:06:36Z</time>
      </trkpt>
      <trkpt lat="-22.3162160" lon="-48.1673660">
        <ele>566.6</ele>
        <time>2019-12-25T11:06:40Z</time>
      </trkpt>
      <trkpt lat="-22.3161800" lon="-48.1672080">
        <ele>567.4</ele>
        <time>2019-12-25T11:06:44Z</time>
      </trkpt>
      <trkpt lat="-22.3161500" lon="-48.1670450">
        <ele>567.4</ele>
        <time>2019-12-25T11:06:48Z</time>
      </trkpt>
      <trkpt lat="-22.3161250" lon="-48.1668850">
        <ele>568.0</ele>
        <time>2019-12-25T11:06:52Z</time>
      </trkpt>
      <trkpt lat="-22.3161000" lon="-48.1667330">
        <ele>567.6</ele>
        <time>2019-12-25T11:06:56Z</time>
      </trkpt>
      <trkpt lat="-22.3160750" lon="-48.1665730">
        <ele>568.0</ele>
        <time>2019-12-25T11:07:00Z</time>
      </trkpt>
      <trkpt lat="-22.3160500" lon="-48.1664260">
        <ele>568.6</ele>
        <time>2019-12-25T11:07:04Z</time>
      </trkpt>
      <trkpt lat="-22.3160330" lon="-48.1662750">
        <ele>568.6</ele>
        <time>2019-12-25T11:07:08Z</time>
      </trkpt>
      <trkpt lat="-22.3160060" lon="-48.1661260">
        <ele>569.8</ele>
        <time>2019-12-25T11:07:12Z</time>
      </trkpt>
      <trkpt lat="-22.3159810" lon="-48.1659800">
        <ele>569.8</ele>
        <time>2019-12-25T11:07:16Z</time>
      </trkpt>
      <trkpt lat="-22.3159460" lon="-48.1658400">
        <ele>569.8</ele>
        <time>2019-12-25T11:07:20Z</time>
      </trkpt>
      <trkpt lat="-22.3159100" lon="-48.1657010">
        <ele>569.8</ele>
        <time>2019-12-25T11:07:24Z</time>
      </trkpt>
      <trkpt lat="-22.3158760" lon="-48.1655450">
        <ele>569.8</ele>
        <time>2019-12-25T11:07:28Z</time>
      </trkpt>
      <trkpt lat="-22.3158410" lon="-48.1653800">
        <ele>570.4</ele>
        <time>2019-12-25T11:07:32Z</time>
      </trkpt>
      <trkpt lat="-22.3158060" lon="-48.1652130">
        <ele>571.4</ele>
        <time>2019-12-25T11:07:36Z</time>
      </trkpt>
      <trkpt lat="-22.3157750" lon="-48.1650500">
        <ele>571.4</ele>
        <time>2019-12-25T11:07:40Z</time>
      </trkpt>
      <trkpt lat="-22.3157410" lon="-48.1648910">
        <ele>571.4</ele>
        <time>2019-12-25T11:07:44Z</time>
      </trkpt>
      <trkpt lat="-22.3157110" lon="-48.1647300">
        <ele>571.4</ele>
        <time>2019-12-25T11:07:48Z</time>
      </trkpt>
      <trkpt lat="-22.3156780" lon="-48.1645750">
        <ele>571.8</ele>
        <time>2019-12-25T11:07:52Z</time>
      </trkpt>
      <trkpt lat="-22.3156480" lon="-48.1644280">
        <ele>572.2</ele>
        <time>2019-12-25T11:07:56Z</time>
      </trkpt>
      <trkpt lat="-22.3156160" lon="-48.1642710">
        <ele>572.6</ele>
        <time>2019-12-25T11:08:00Z</time>
      </trkpt>
      <trkpt lat="-22.3155830" lon="-48.1641180">
        <ele>572.6</ele>
        <time>2019-12-25T11:08:04Z</time>
      </trkpt>
      <trkpt lat="-22.3155480" lon="-48.1639630">
        <ele>573.2</ele>
        <time>2019-12-25T11:08:08Z</time>
      </trkpt>
      <trkpt lat="-22.3155130" lon="-48.1638030">
        <ele>573.2</ele>
        <time>2019-12-25T11:08:12Z</time>
      </trkpt>
      <trkpt lat="-22.3154800" lon="-48.1636360">
        <ele>573.2</ele>
        <time>2019-12-25T11:08:16Z</time>
      </trkpt>
      <trkpt lat="-22.3154460" lon="-48.1634750">
        <ele>573.2</ele>
        <time>2019-12-25T11:08:20Z</time>
      </trkpt>
      <trkpt lat="-22.3154130" lon="-48.1633130">
        <ele>574.4</ele>
        <time>2019-12-25T11:08:24Z</time>
      </trkpt>
      <trkpt lat="-22.3153810" lon="-48.1631630">
        <ele>574.4</ele>
        <time>2019-12-25T11:08:28Z</time>
      </trkpt>
      <trkpt lat="-22.3153460" lon="-48.1630110">
        <ele>575.4</ele>
        <time>2019-12-25T11:08:32Z</time>
      </trkpt>
      <trkpt lat="-22.3153160" lon="-48.1628630">
        <ele>575.4</ele>
        <time>2019-12-25T11:08:36Z</time>
      </trkpt>
      <trkpt lat="-22.3152810" lon="-48.1627110">
        <ele>575.4</ele>
        <time>2019-12-25T11:08:40Z</time>
      </trkpt>
      <trkpt lat="-22.3152500" lon="-48.1625660">
        <ele>576.0</ele>
        <time>2019-12-25T11:08:44Z</time>
      </trkpt>
      <trkpt lat="-22.3152180" lon="-48.1624360">
        <ele>576.4</ele>
        <time>2019-12-25T11:08:48Z</time>
      </trkpt>
      <trkpt lat="-22.3151850" lon="-48.1623250">
        <ele>576.4</ele>
        <time>2019-12-25T11:08:52Z</time>
      </trkpt>
      <trkpt lat="-22.3151610" lon="-48.1622150">
        <ele>577.4</ele>
        <time>2019-12-25T11:08:56Z</time>
      </trkpt>
      <trkpt lat="-22.3151350" lon="-48.1620960">
        <ele>577.4</ele>
        <time>2019-12-25T11:09:00Z</time>
      </trkpt>
      <trkpt lat="-22.3151130" lon="-48.1619860">
        <ele>576.8</ele>
        <time>2019-12-25T11:09:04Z</time>
      </trkpt>
      <trkpt lat="-22.3150910" lon="-48.1618780">
        <ele>577.6</ele>
        <time>2019-12-25T11:09:08Z</time>
      </trkpt>
      <trkpt lat="-22.3150660" lon="-48.1617760">
        <ele>577.8</ele>
        <time>2019-12-25T11:09:12Z</time>
      </trkpt>
      <trkpt lat="-22.3150500" lon="-48.1616780">
        <ele>578.6</ele>
        <time>2019-12-25T11:09:16Z</time>
      </trkpt>
      <trkpt lat="-22.3150180" lon="-48.1615850">
        <ele>578.6</ele>
        <time>2019-12-25T11:09:20Z</time>
      </trkpt>
      <trkpt lat="-22.3149910" lon="-48.1614850">
        <ele>579.2</ele>
        <time>2019-12-25T11:09:24Z</time>
      </trkpt>
      <trkpt lat="-22.3149680" lon="-48.1613730">
        <ele>579.2</ele>
        <time>2019-12-25T11:09:28Z</time>
      </trkpt>
      <trkpt lat="-22.3149430" lon="-48.1612650">
        <ele>579.4</ele>
        <time>2019-12-25T11:09:32Z</time>
      </trkpt>
      <trkpt lat="-22.3149180" lon="-48.1611510">
        <ele>579.0</ele>
        <time>2019-12-25T11:09:36Z</time>
      </trkpt>
      <trkpt lat="-22.3148900" lon="-48.1610400">
        <ele>579.8</ele>
        <time>2019-12-25T11:09:40Z</time>
      </trkpt>
      <trkpt lat="-22.3148630" lon="-48.1609310">
        <ele>579.8</ele>
        <time>2019-12-25T11:09:44Z</time>
      </trkpt>
      <trkpt lat="-22.3148350" lon="-48.1608330">
        <ele>579.8</ele>
        <time>2019-12-25T11:09:48Z</time>
      </trkpt>
      <trkpt lat="-22.3148100" lon="-48.1607280">
        <ele>580.6</ele>
        <time>2019-12-25T11:09:52Z</time>
      </trkpt>
      <trkpt lat="-22.3147830" lon="-48.1606280">
        <ele>580.8</ele>
        <time>2019-12-25T11:09:56Z</time>
      </trkpt>
      <trkpt lat="-22.3147600" lon="-48.1605180">
        <ele>580.8</ele>
        <time>2019-12-25T11:10:00Z</time>
      </trkpt>
      <trkpt lat="-22.3147350" lon="-48.1604010">
        <ele>581.6</ele>
        <time>2019-12-25T11:10:04Z</time>
      </trkpt>
      <trkpt lat="-22.3147130" lon="-48.1602930">
        <ele>581.6</ele>
        <time>2019-12-25T11:10:08Z</time>
      </trkpt>
      <trkpt lat="-22.3146950" lon="-48.1601810">
        <ele>582.4</ele>
        <time>2019-12-25T11:10:12Z</time>
      </trkpt>
      <trkpt lat="-22.3146830" lon="-48.1600880">
        <ele>582.4</ele>
        <time>2019-12-25T11:10:16Z</time>
      </trkpt>
      <trkpt lat="-22.3146730" lon="-48.1600300">
        <ele>583.4</ele>
        <time>2019-12-25T11:10:20Z</time>
      </trkpt>
      <trkpt lat="-22.3146500" lon="-48.1599780">
        <ele>584.0</ele>
        <time>2019-12-25T11:10:24Z</time>
      </trkpt>
      <trkpt lat="-22.3146410" lon="-48.1598800">
        <ele>584.2</ele>
        <time>2019-12-25T11:10:28Z</time>
      </trkpt>
      <trkpt lat="-22.3146500" lon="-48.1597750">
        <ele>584.2</ele>
        <time>2019-12-25T11:10:32Z</time>
      </trkpt>
      <trkpt lat="-22.3146730" lon="-48.1596580">
        <ele>584.0</ele>
        <time>2019-12-25T11:10:36Z</time>
      </trkpt>
      <trkpt lat="-22.3147000" lon="-48.1595350">
        <ele>584.0</ele>
        <time>2019-12-25T11:10:40Z</time>
      </trkpt>
      <trkpt lat="-22.3147380" lon="-48.1594080">
        <ele>584.8</ele>
        <time>2019-12-25T11:10:44Z</time>
      </trkpt>
      <trkpt lat="-22.3147600" lon="-48.1593000">
        <ele>584.8</ele>
        <time>2019-12-25T11:10:48Z</time>
      </trkpt>
      <trkpt lat="-22.3147810" lon="-48.1592180">
        <ele>585.2</ele>
        <time>2019-12-25T11:10:52Z</time>
      </trkpt>
      <trkpt lat="-22.3147980" lon="-48.1591300">
        <ele>585.2</ele>
        <time>2019-12-25T11:10:56Z</time>
      </trkpt>
      <trkpt lat="-22.3148210" lon="-48.1590200">
        <ele>585.2</ele>
        <time>2019-12-25T11:11:00Z</time>
      </trkpt>
      <trkpt lat="-22.3148400" lon="-48.1589030">
        <ele>585.8</ele>
        <time>2019-12-25T11:11:04Z</time>
      </trkpt>
      <trkpt lat="-22.3148680" lon="-48.1587860">
        <ele>586.4</ele>
        <time>2019-12-25T11:11:08Z</time>
      </trkpt>
      <trkpt lat="-22.3149010" lon="-48.1586660">
        <ele>586.4</ele>
        <time>2019-12-25T11:11:12Z</time>
      </trkpt>
      <trkpt lat="-22.3149450" lon="-48.1585360">
        <ele>586.4</ele>
        <time>2019-12-25T11:11:16Z</time>
      </trkpt>
      <trkpt lat="-22.3149810" lon="-48.1584110">
        <ele>586.6</ele>
        <time>2019-12-25T11:11:20Z</time>
      </trkpt>
      <trkpt lat="-22.3150250" lon="-48.1582860">
        <ele>587.4</ele>
        <time>2019-12-25T11:11:24Z</time>
      </trkpt>
      <trkpt lat="-22.3150550" lon="-48.1581630">
        <ele>587.4</ele>
        <time>2019-12-25T11:11:28Z</time>
      </trkpt>
      <trkpt lat="-22.3150830" lon="-48.1580480">
        <ele>588.2</ele>
        <time>2019-12-25T11:11:32Z</time>
      </trkpt>
      <trkpt lat="-22.3151150" lon="-48.1579350">
        <ele>589.0</ele>
        <time>2019-12-25T11:11:36Z</time>
      </trkpt>
      <trkpt lat="-22.3151450" lon="-48.1578230">
        <ele>589.0</ele>
        <time>2019-12-25T11:11:40Z</time>
      </trkpt>
      <trkpt lat="-22.3151730" lon="-48.1577150">
        <ele>589.8</ele>
        <time>2019-12-25T11:11:44Z</time>
      </trkpt>
      <trkpt lat="-22.3152010" lon="-48.1576100">
        <ele>589.2</ele>
        <time>2019-12-25T11:11:48Z</time>
      </trkpt>
      <trkpt lat="-22.3152230" lon="-48.1575100">
        <ele>590.0</ele>
        <time>2019-12-25T11:11:52Z</time>
      </trkpt>
      <trkpt lat="-22.3152510" lon="-48.1574010">
        <ele>589.6</ele>
        <time>2019-12-25T11:11:56Z</time>
      </trkpt>
      <trkpt lat="-22.3152800" lon="-48.1572910">
        <ele>590.4</ele>
        <time>2019-12-25T11:12:00Z</time>
      </trkpt>
      <trkpt lat="-22.3153050" lon="-48.1571860">
        <ele>590.4</ele>
        <time>2019-12-25T11:12:04Z</time>
      </trkpt>
      <trkpt lat="-22.3153230" lon="-48.1570850">
        <ele>590.4</ele>
        <time>2019-12-25T11:12:08Z</time>
      </trkpt>
      <trkpt lat="-22.3153580" lon="-48.1569710">
        <ele>591.0</ele>
        <time>2019-12-25T11:12:12Z</time>
      </trkpt>
      <trkpt lat="-22.3153900" lon="-48.1568580">
        <ele>590.2</ele>
        <time>2019-12-25T11:12:16Z</time>
      </trkpt>
      <trkpt lat="-22.3154260" lon="-48.1567530">
        <ele>591.2</ele>
        <time>2019-12-25T11:12:20Z</time>
      </trkpt>
      <trkpt lat="-22.3154510" lon="-48.1566410">
        <ele>590.4</ele>
        <time>2019-12-25T11:12:24Z</time>
      </trkpt>
      <trkpt lat="-22.3154850" lon="-48.1565300">
        <ele>590.4</ele>
        <time>2019-12-25T11:12:28Z</time>
      </trkpt>
      <trkpt lat="-22.3155110" lon="-48.1564210">
        <ele>591.0</ele>
        <time>2019-12-25T11:12:32Z</time>
      </trkpt>
      <trkpt lat="-22.3155310" lon="-48.1563180">
        <ele>591.0</ele>
        <time>2019-12-25T11:12:36Z</time>
      </trkpt>
      <trkpt lat="-22.3155510" lon="-48.1562160">
        <ele>591.0</ele>
        <time>2019-12-25T11:12:40Z</time>
      </trkpt>
      <trkpt lat="-22.3155830" lon="-48.1561230">
        <ele>591.6</ele>
        <time>2019-12-25T11:12:44Z</time>
      </trkpt>
      <trkpt lat="-22.3156110" lon="-48.1560210">
        <ele>592.0</ele>
        <time>2019-12-25T11:12:48Z</time>
      </trkpt>
      <trkpt lat="-22.3156380" lon="-48.1559180">
        <ele>592.4</ele>
        <time>2019-12-25T11:12:52Z</time>
      </trkpt>
      <trkpt lat="-22.3156650" lon="-48.1558150">
        <ele>592.4</ele>
        <time>2019-12-25T11:12:56Z</time>
      </trkpt>
      <trkpt lat="-22.3157010" lon="-48.1557230">
        <ele>592.0</ele>
        <time>2019-12-25T11:13:00Z</time>
      </trkpt>
      <trkpt lat="-22.3157310" lon="-48.1556230">
        <ele>593.4</ele>
        <time>2019-12-25T11:13:04Z</time>
      </trkpt>
      <trkpt lat="-22.3157630" lon="-48.1555250">
        <ele>592.4</ele>
        <time>2019-12-25T11:13:08Z</time>
      </trkpt>
      <trkpt lat="-22.3157860" lon="-48.1554230">
        <ele>592.8</ele>
        <time>2019-12-25T11:13:12Z</time>
      </trkpt>
      <trkpt lat="-22.3158160" lon="-48.1553230">
        <ele>592.8</ele>
        <time>2019-12-25T11:13:16Z</time>
      </trkpt>
      <trkpt lat="-22.3158410" lon="-48.1552230">
        <ele>592.8</ele>
        <time>2019-12-25T11:13:20Z</time>
      </trkpt>
      <trkpt lat="-22.3158630" lon="-48.1551230">
        <ele>594.2</ele>
        <time>2019-12-25T11:13:24Z</time>
      </trkpt>
      <trkpt lat="-22.3158980" lon="-48.1550450">
        <ele>594.2</ele>
        <time>2019-12-25T11:13:28Z</time>
      </trkpt>
      <trkpt lat="-22.3158980" lon="-48.1550450">
        <ele>593.6</ele>
        <time>2019-12-25T11:13:32Z</time>
      </trkpt>
      <trkpt lat="-22.3159280" lon="-48.1549030">
        <ele>593.8</ele>
        <time>2019-12-25T11:14:33Z</time>
      </trkpt>
      <trkpt lat="-22.3159550" lon="-48.1548300">
        <ele>594.0</ele>
        <time>2019-12-25T11:14:37Z</time>
      </trkpt>
      <trkpt lat="-22.3159830" lon="-48.1547450">
        <ele>594.2</ele>
        <time>2019-12-25T11:14:41Z</time>
      </trkpt>
      <trkpt lat="-22.3160110" lon="-48.1546530">
        <ele>594.6</ele>
        <time>2019-12-25T11:14:45Z</time>
      </trkpt>
      <trkpt lat="-22.3160330" lon="-48.1545560">
        <ele>594.6</ele>
        <time>2019-12-25T11:14:49Z</time>
      </trkpt>
      <trkpt lat="-22.3160560" lon="-48.1544560">
        <ele>595.0</ele>
        <time>2019-12-25T11:14:53Z</time>
      </trkpt>
      <trkpt lat="-22.3160760" lon="-48.1543580">
        <ele>595.0</ele>
        <time>2019-12-25T11:14:57Z</time>
      </trkpt>
      <trkpt lat="-22.3160980" lon="-48.1542610">
        <ele>595.6</ele>
        <time>2019-12-25T11:15:01Z</time>
      </trkpt>
      <trkpt lat="-22.3161210" lon="-48.1541610">
        <ele>596.0</ele>
        <time>2019-12-25T11:15:05Z</time>
      </trkpt>
      <trkpt lat="-22.3161400" lon="-48.1540630">
        <ele>596.0</ele>
        <time>2019-12-25T11:15:09Z</time>
      </trkpt>
      <trkpt lat="-22.3161650" lon="-48.1539680">
        <ele>596.6</ele>
        <time>2019-12-25T11:15:13Z</time>
      </trkpt>
      <trkpt lat="-22.3161880" lon="-48.1538710">
        <ele>596.6</ele>
        <time>2019-12-25T11:15:17Z</time>
      </trkpt>
      <trkpt lat="-22.3162110" lon="-48.1537800">
        <ele>597.0</ele>
        <time>2019-12-25T11:15:21Z</time>
      </trkpt>
      <trkpt lat="-22.3162350" lon="-48.1536860">
        <ele>597.4</ele>
        <time>2019-12-25T11:15:25Z</time>
      </trkpt>
      <trkpt lat="-22.3162580" lon="-48.1535900">
        <ele>598.0</ele>
        <time>2019-12-25T11:15:29Z</time>
      </trkpt>
      <trkpt lat="-22.3162810" lon="-48.1534960">
        <ele>598.0</ele>
        <time>2019-12-25T11:15:33Z</time>
      </trkpt>
      <trkpt lat="-22.3163030" lon="-48.1534030">
        <ele>598.8</ele>
        <time>2019-12-25T11:15:37Z</time>
      </trkpt>
      <trkpt lat="-22.3163350" lon="-48.1533130">
        <ele>599.2</ele>
        <time>2019-12-25T11:15:41Z</time>
      </trkpt>
      <trkpt lat="-22.3163630" lon="-48.1532230">
        <ele>599.8</ele>
        <time>2019-12-25T11:15:45Z</time>
      </trkpt>
      <trkpt lat="-22.3163850" lon="-48.1531350">
        <ele>600.2</ele>
        <time>2019-12-25T11:15:49Z</time>
      </trkpt>
      <trkpt lat="-22.3164050" lon="-48.1530480">
        <ele>600.2</ele>
        <time>2019-12-25T11:15:53Z</time>
      </trkpt>
      <trkpt lat="-22.3164230" lon="-48.1529660">
        <ele>601.0</ele>
        <time>2019-12-25T11:15:57Z</time>
      </trkpt>
      <trkpt lat="-22.3164350" lon="-48.1528650">
        <ele>600.8</ele>
        <time>2019-12-25T11:16:01Z</time>
      </trkpt>
      <trkpt lat="-22.3164280" lon="-48.1527710">
        <ele>601.0</ele>
        <time>2019-12-25T11:16:05Z</time>
      </trkpt>
      <trkpt lat="-22.3164100" lon="-48.1526800">
        <ele>601.6</ele>
        <time>2019-12-25T11:16:09Z</time>
      </trkpt>
      <trkpt lat="-22.3164010" lon="-48.1525960">
        <ele>601.6</ele>
        <time>2019-12-25T11:16:13Z</time>
      </trkpt>
      <trkpt lat="-22.3162930" lon="-48.1524900">
        <ele>602.8</ele>
        <time>2019-12-25T11:21:05Z</time>
      </trkpt>
      <trkpt lat="-22.3162450" lon="-48.1524550">
        <ele>603.4</ele>
        <time>2019-12-25T11:21:09Z</time>
      </trkpt>
      <trkpt lat="-22.3161930" lon="-48.1524330">
        <ele>604.0</ele>
        <time>2019-12-25T11:21:13Z</time>
      </trkpt>
      <trkpt lat="-22.3161360" lon="-48.1524030">
        <ele>604.0</ele>
        <time>2019-12-25T11:21:17Z</time>
      </trkpt>
      <trkpt lat="-22.3160810" lon="-48.1523630">
        <ele>604.6</ele>
        <time>2019-12-25T11:21:21Z</time>
      </trkpt>
      <trkpt lat="-22.3160150" lon="-48.1523300">
        <ele>604.6</ele>
        <time>2019-12-25T11:21:25Z</time>
      </trkpt>
      <trkpt lat="-22.3159550" lon="-48.1522900">
        <ele>605.4</ele>
        <time>2019-12-25T11:21:29Z</time>
      </trkpt>
      <trkpt lat="-22.3158980" lon="-48.1522700">
        <ele>605.8</ele>
        <time>2019-12-25T11:21:33Z</time>
      </trkpt>
      <trkpt lat="-22.3158430" lon="-48.1522160">
        <ele>605.8</ele>
        <time>2019-12-25T11:21:37Z</time>
      </trkpt>
      <trkpt lat="-22.3157810" lon="-48.1521630">
        <ele>605.8</ele>
        <time>2019-12-25T11:21:41Z</time>
      </trkpt>
      <trkpt lat="-22.3157160" lon="-48.1521150">
        <ele>606.2</ele>
        <time>2019-12-25T11:21:45Z</time>
      </trkpt>
      <trkpt lat="-22.3156500" lon="-48.1520680">
        <ele>606.2</ele>
        <time>2019-12-25T11:21:49Z</time>
      </trkpt>
      <trkpt lat="-22.3155830" lon="-48.1520180">
        <ele>606.6</ele>
        <time>2019-12-25T11:21:53Z</time>
      </trkpt>
      <trkpt lat="-22.3155100" lon="-48.1519680">
        <ele>606.8</ele>
        <time>2019-12-25T11:21:57Z</time>
      </trkpt>
      <trkpt lat="-22.3154410" lon="-48.1519200">
        <ele>607.6</ele>
        <time>2019-12-25T11:22:01Z</time>
      </trkpt>
      <trkpt lat="-22.3153830" lon="-48.1518700">
        <ele>607.6</ele>
        <time>2019-12-25T11:22:05Z</time>
      </trkpt>
      <trkpt lat="-22.3153210" lon="-48.1518180">
        <ele>607.6</ele>
        <time>2019-12-25T11:22:09Z</time>
      </trkpt>
      <trkpt lat="-22.3152560" lon="-48.1517410">
        <ele>608.4</ele>
        <time>2019-12-25T11:22:13Z</time>
      </trkpt>
      <trkpt lat="-22.3151960" lon="-48.1516810">
        <ele>608.4</ele>
        <time>2019-12-25T11:22:17Z</time>
      </trkpt>
      <trkpt lat="-22.3151430" lon="-48.1516360">
        <ele>610.0</ele>
        <time>2019-12-25T11:22:21Z</time>
      </trkpt>
      <trkpt lat="-22.3150910" lon="-48.1516060">
        <ele>610.6</ele>
        <time>2019-12-25T11:22:25Z</time>
      </trkpt>
      <trkpt lat="-22.3150410" lon="-48.1515780">
        <ele>611.0</ele>
        <time>2019-12-25T11:22:29Z</time>
      </trkpt>
      <trkpt lat="-22.3149880" lon="-48.1515530">
        <ele>611.8</ele>
        <time>2019-12-25T11:22:33Z</time>
      </trkpt>
      <trkpt lat="-22.3149330" lon="-48.1515280">
        <ele>612.0</ele>
        <time>2019-12-25T11:22:37Z</time>
      </trkpt>
      <trkpt lat="-22.3148750" lon="-48.1515050">
        <ele>612.0</ele>
        <time>2019-12-25T11:22:41Z</time>
      </trkpt>
      <trkpt lat="-22.3148230" lon="-48.1514910">
        <ele>612.4</ele>
        <time>2019-12-25T11:22:45Z</time>
      </trkpt>
      <trkpt lat="-22.3147660" lon="-48.1514700">
        <ele>613.6</ele>
        <time>2019-12-25T11:22:49Z</time>
      </trkpt>
      <trkpt lat="-22.3147030" lon="-48.1514410">
        <ele>613.0</ele>
        <time>2019-12-25T11:22:53Z</time>
      </trkpt>
      <trkpt lat="-22.3146280" lon="-48.1514150">
        <ele>613.6</ele>
        <time>2019-12-25T11:22:57Z</time>
      </trkpt>
      <trkpt lat="-22.3145610" lon="-48.1513730">
        <ele>614.6</ele>
        <time>2019-12-25T11:23:01Z</time>
      </trkpt>
      <trkpt lat="-22.3144950" lon="-48.1513410">
        <ele>614.4</ele>
        <time>2019-12-25T11:23:05Z</time>
      </trkpt>
      <trkpt lat="-22.3144350" lon="-48.1513210">
        <ele>614.8</ele>
        <time>2019-12-25T11:23:09Z</time>
      </trkpt>
      <trkpt lat="-22.3143580" lon="-48.1512700">
        <ele>616.0</ele>
        <time>2019-12-25T11:23:13Z</time>
      </trkpt>
      <trkpt lat="-22.3142910" lon="-48.1512510">
        <ele>616.0</ele>
        <time>2019-12-25T11:23:17Z</time>
      </trkpt>
      <trkpt lat="-22.3142250" lon="-48.1512050">
        <ele>616.8</ele>
        <time>2019-12-25T11:23:21Z</time>
      </trkpt>
      <trkpt lat="-22.3141430" lon="-48.1511580">
        <ele>617.2</ele>
        <time>2019-12-25T11:23:25Z</time>
      </trkpt>
      <trkpt lat="-22.3140710" lon="-48.1511160">
        <ele>617.2</ele>
        <time>2019-12-25T11:23:29Z</time>
      </trkpt>
      <trkpt lat="-22.3139930" lon="-48.1510730">
        <ele>617.6</ele>
        <time>2019-12-25T11:23:33Z</time>
      </trkpt>
      <trkpt lat="-22.3139200" lon="-48.1510330">
        <ele>618.6</ele>
        <time>2019-12-25T11:23:37Z</time>
      </trkpt>
      <trkpt lat="-22.3138400" lon="-48.1509900">
        <ele>619.4</ele>
        <time>2019-12-25T11:23:41Z</time>
      </trkpt>
      <trkpt lat="-22.3137600" lon="-48.1509610">
        <ele>620.4</ele>
        <time>2019-12-25T11:23:45Z</time>
      </trkpt>
      <trkpt lat="-22.3136880" lon="-48.1509250">
        <ele>621.2</ele>
        <time>2019-12-25T11:23:49Z</time>
      </trkpt>
      <trkpt lat="-22.3136230" lon="-48.1508780">
        <ele>621.4</ele>
        <time>2019-12-25T11:23:53Z</time>
      </trkpt>
      <trkpt lat="-22.3135530" lon="-48.1508230">
        <ele>621.4</ele>
        <time>2019-12-25T11:23:57Z</time>
      </trkpt>
      <trkpt lat="-22.3134810" lon="-48.1507850">
        <ele>622.2</ele>
        <time>2019-12-25T11:24:01Z</time>
      </trkpt>
      <trkpt lat="-22.3134060" lon="-48.1507380">
        <ele>622.8</ele>
        <time>2019-12-25T11:24:05Z</time>
      </trkpt>
      <trkpt lat="-22.3133310" lon="-48.1506910">
        <ele>623.4</ele>
        <time>2019-12-25T11:24:09Z</time>
      </trkpt>
      <trkpt lat="-22.3132660" lon="-48.1506430">
        <ele>623.4</ele>
        <time>2019-12-25T11:24:13Z</time>
      </trkpt>
      <trkpt lat="-22.3131960" lon="-48.1505850">
        <ele>624.2</ele>
        <time>2019-12-25T11:24:17Z</time>
      </trkpt>
      <trkpt lat="-22.3131200" lon="-48.1505310">
        <ele>624.0</ele>
        <time>2019-12-25T11:24:21Z</time>
      </trkpt>
      <trkpt lat="-22.3130450" lon="-48.1504860">
        <ele>624.6</ele>
        <time>2019-12-25T11:24:25Z</time>
      </trkpt>
      <trkpt lat="-22.3129750" lon="-48.1504550">
        <ele>625.0</ele>
        <time>2019-12-25T11:24:29Z</time>
      </trkpt>
      <trkpt lat="-22.3129180" lon="-48.1504130">
        <ele>626.0</ele>
        <time>2019-12-25T11:24:33Z</time>
      </trkpt>
      <trkpt lat="-22.3128560" lon="-48.1503530">
        <ele>626.6</ele>
        <time>2019-12-25T11:24:37Z</time>
      </trkpt>
      <trkpt lat="-22.3127960" lon="-48.1502810">
        <ele>627.6</ele>
        <time>2019-12-25T11:24:41Z</time>
      </trkpt>
      <trkpt lat="-22.3127410" lon="-48.1502180">
        <ele>627.8</ele>
        <time>2019-12-25T11:24:45Z</time>
      </trkpt>
      <trkpt lat="-22.3126960" lon="-48.1501710">
        <ele>628.4</ele>
        <time>2019-12-25T11:24:49Z</time>
      </trkpt>
      <trkpt lat="-22.3126510" lon="-48.1501300">
        <ele>628.8</ele>
        <time>2019-12-25T11:24:53Z</time>
      </trkpt>
      <trkpt lat="-22.3126000" lon="-48.1500780">
        <ele>628.0</ele>
        <time>2019-12-25T11:24:57Z</time>
      </trkpt>
      <trkpt lat="-22.3125450" lon="-48.1500200">
        <ele>628.8</ele>
        <time>2019-12-25T11:25:01Z</time>
      </trkpt>
      <trkpt lat="-22.3107800" lon="-48.1483230">
        <ele>645.2</ele>
        <time>2019-12-25T11:30:11Z</time>
      </trkpt>
      <trkpt lat="-22.3107350" lon="-48.1482760">
        <ele>645.4</ele>
        <time>2019-12-25T11:30:15Z</time>
      </trkpt>
      <trkpt lat="-22.3106830" lon="-48.1482330">
        <ele>647.0</ele>
        <time>2019-12-25T11:30:19Z</time>
      </trkpt>
      <trkpt lat="-22.3106350" lon="-48.1481830">
        <ele>647.0</ele>
        <time>2019-12-25T11:30:23Z</time>
      </trkpt>
      <trkpt lat="-22.3105980" lon="-48.1481330">
        <ele>648.8</ele>
        <time>2019-12-25T11:30:27Z</time>
      </trkpt>
      <trkpt lat="-22.3105460" lon="-48.1480900">
        <ele>647.8</ele>
        <time>2019-12-25T11:30:31Z</time>
      </trkpt>
      <trkpt lat="-22.3104930" lon="-48.1480400">
        <ele>648.6</ele>
        <time>2019-12-25T11:30:35Z</time>
      </trkpt>
      <trkpt lat="-22.3104380" lon="-48.1479830">
        <ele>648.6</ele>
        <time>2019-12-25T11:30:39Z</time>
      </trkpt>
      <trkpt lat="-22.3103880" lon="-48.1479150">
        <ele>648.6</ele>
        <time>2019-12-25T11:30:43Z</time>
      </trkpt>
      <trkpt lat="-22.3103380" lon="-48.1478600">
        <ele>650.2</ele>
        <time>2019-12-25T11:30:47Z</time>
      </trkpt>
      <trkpt lat="-22.3102860" lon="-48.1478060">
        <ele>649.2</ele>
        <time>2019-12-25T11:30:51Z</time>
      </trkpt>
      <trkpt lat="-22.3102430" lon="-48.1477480">
        <ele>651.4</ele>
        <time>2019-12-25T11:30:55Z</time>
      </trkpt>
      <trkpt lat="-22.3102010" lon="-48.1476960">
        <ele>651.4</ele>
        <time>2019-12-25T11:30:59Z</time>
      </trkpt>
      <trkpt lat="-22.3101610" lon="-48.1476400">
        <ele>652.4</ele>
        <time>2019-12-25T11:31:03Z</time>
      </trkpt>
      <trkpt lat="-22.3101100" lon="-48.1475780">
        <ele>652.2</ele>
        <time>2019-12-25T11:31:07Z</time>
      </trkpt>
      <trkpt lat="-22.3100610" lon="-48.1475000">
        <ele>652.2</ele>
        <time>2019-12-25T11:31:11Z</time>
      </trkpt>
      <trkpt lat="-22.3100030" lon="-48.1474130">
        <ele>652.8</ele>
        <time>2019-12-25T11:31:15Z</time>
      </trkpt>
      <trkpt lat="-22.3099500" lon="-48.1473180">
        <ele>652.8</ele>
        <time>2019-12-25T11:31:19Z</time>
      </trkpt>
      <trkpt lat="-22.3099080" lon="-48.1472200">
        <ele>652.8</ele>
        <time>2019-12-25T11:31:23Z</time>
      </trkpt>
      <trkpt lat="-22.3098650" lon="-48.1471210">
        <ele>652.8</ele>
        <time>2019-12-25T11:31:27Z</time>
      </trkpt>
      <trkpt lat="-22.3098280" lon="-48.1470360">
        <ele>653.2</ele>
        <time>2019-12-25T11:31:31Z</time>
      </trkpt>
      <trkpt lat="-22.3097860" lon="-48.1469600">
        <ele>653.8</ele>
        <time>2019-12-25T11:31:35Z</time>
      </trkpt>
      <trkpt lat="-22.3097400" lon="-48.1468800">
        <ele>653.8</ele>
        <time>2019-12-25T11:31:39Z</time>
      </trkpt>
      <trkpt lat="-22.3096980" lon="-48.1467910">
        <ele>653.8</ele>
        <time>2019-12-25T11:31:43Z</time>
      </trkpt>
      <trkpt lat="-22.3096580" lon="-48.1467060">
        <ele>654.8</ele>
        <time>2019-12-25T11:31:47Z</time>
      </trkpt>
      <trkpt lat="-22.3096150" lon="-48.1466230">
        <ele>654.8</ele>
        <time>2019-12-25T11:31:51Z</time>
      </trkpt>
      <trkpt lat="-22.3095730" lon="-48.1465430">
        <ele>655.8</ele>
        <time>2019-12-25T11:31:55Z</time>
      </trkpt>
      <trkpt lat="-22.3095260" lon="-48.1464450">
        <ele>656.2</ele>
        <time>2019-12-25T11:31:59Z</time>
      </trkpt>
      <trkpt lat="-22.3094730" lon="-48.1463300">
        <ele>656.0</ele>
        <time>2019-12-25T11:32:03Z</time>
      </trkpt>
      <trkpt lat="-22.3094110" lon="-48.1462210">
        <ele>656.0</ele>
        <time>2019-12-25T11:32:07Z</time>
      </trkpt>
      <trkpt lat="-22.3093380" lon="-48.1461150">
        <ele>656.6</ele>
        <time>2019-12-25T11:32:11Z</time>
      </trkpt>
      <trkpt lat="-22.3092630" lon="-48.1460010">
        <ele>657.2</ele>
        <time>2019-12-25T11:32:15Z</time>
      </trkpt>
      <trkpt lat="-22.3091900" lon="-48.1458810">
        <ele>656.8</ele>
        <time>2019-12-25T11:32:19Z</time>
      </trkpt>
      <trkpt lat="-22.3091080" lon="-48.1457610">
        <ele>656.8</ele>
        <time>2019-12-25T11:32:23Z</time>
      </trkpt>
      <trkpt lat="-22.3090280" lon="-48.1456360">
        <ele>656.4</ele>
        <time>2019-12-25T11:32:27Z</time>
      </trkpt>
      <trkpt lat="-22.3089500" lon="-48.1455100">
        <ele>655.2</ele>
        <time>2019-12-25T11:32:31Z</time>
      </trkpt>
      <trkpt lat="-22.3088530" lon="-48.1453600">
        <ele>655.6</ele>
        <time>2019-12-25T11:32:35Z</time>
      </trkpt>
      <trkpt lat="-22.3087500" lon="-48.1452050">
        <ele>654.4</ele>
        <time>2019-12-25T11:32:39Z</time>
      </trkpt>
      <trkpt lat="-22.3086550" lon="-48.1450530">
        <ele>654.4</ele>
        <time>2019-12-25T11:32:43Z</time>
      </trkpt>
      <trkpt lat="-22.3085500" lon="-48.1448810">
        <ele>654.4</ele>
        <time>2019-12-25T11:32:47Z</time>
      </trkpt>
      <trkpt lat="-22.3084500" lon="-48.1447150">
        <ele>654.4</ele>
        <time>2019-12-25T11:32:51Z</time>
      </trkpt>
      <trkpt lat="-22.3083230" lon="-48.1445210">
        <ele>653.6</ele>
        <time>2019-12-25T11:32:55Z</time>
      </trkpt>
      <trkpt lat="-22.3081960" lon="-48.1442910">
        <ele>652.6</ele>
        <time>2019-12-25T11:32:59Z</time>
      </trkpt>
      <trkpt lat="-22.3080450" lon="-48.1440730">
        <ele>652.6</ele>
        <time>2019-12-25T11:33:03Z</time>
      </trkpt>
      <trkpt lat="-22.3079180" lon="-48.1438700">
        <ele>651.8</ele>
        <time>2019-12-25T11:33:07Z</time>
      </trkpt>
      <trkpt lat="-22.3077800" lon="-48.1436460">
        <ele>651.8</ele>
        <time>2019-12-25T11:33:11Z</time>
      </trkpt>
      <trkpt lat="-22.3076350" lon="-48.1433880">
        <ele>650.8</ele>
        <time>2019-12-25T11:33:15Z</time>
      </trkpt>
      <trkpt lat="-22.3074760" lon="-48.1431310">
        <ele>648.4</ele>
        <time>2019-12-25T11:33:19Z</time>
      </trkpt>
      <trkpt lat="-22.3073230" lon="-48.1428860">
        <ele>648.4</ele>
        <time>2019-12-25T11:33:23Z</time>
      </trkpt>
      <trkpt lat="-22.3071880" lon="-48.1426800">
        <ele>649.2</ele>
        <time>2019-12-25T11:33:27Z</time>
      </trkpt>
      <trkpt lat="-22.3070310" lon="-48.1424660">
        <ele>646.4</ele>
        <time>2019-12-25T11:33:31Z</time>
      </trkpt>
      <trkpt lat="-22.3068710" lon="-48.1422280">
        <ele>646.2</ele>
        <time>2019-12-25T11:33:35Z</time>
      </trkpt>
      <trkpt lat="-22.3067010" lon="-48.1419530">
        <ele>645.8</ele>
        <time>2019-12-25T11:33:39Z</time>
      </trkpt>
      <trkpt lat="-22.3065650" lon="-48.1417550">
        <ele>645.0</ele>
        <time>2019-12-25T11:33:43Z</time>
      </trkpt>
      <trkpt lat="-22.3064480" lon="-48.1415800">
        <ele>645.0</ele>
        <time>2019-12-25T11:33:47Z</time>
      </trkpt>
      <trkpt lat="-22.3063330" lon="-48.1413900">
        <ele>644.0</ele>
        <time>2019-12-25T11:33:51Z</time>
      </trkpt>
      <trkpt lat="-22.3062160" lon="-48.1412080">
        <ele>643.8</ele>
        <time>2019-12-25T11:33:55Z</time>
      </trkpt>
      <trkpt lat="-22.3060860" lon="-48.1410560">
        <ele>642.8</ele>
        <time>2019-12-25T11:33:59Z</time>
      </trkpt>
      <trkpt lat="-22.3059400" lon="-48.1409650">
        <ele>641.6</ele>
        <time>2019-12-25T11:34:03Z</time>
      </trkpt>
      <trkpt lat="-22.3057810" lon="-48.1408960">
        <ele>642.4</ele>
        <time>2019-12-25T11:34:07Z</time>
      </trkpt>
      <trkpt lat="-22.3056030" lon="-48.1408280">
        <ele>642.4</ele>
        <time>2019-12-25T11:34:11Z</time>
      </trkpt>
      <trkpt lat="-22.3054260" lon="-48.1407530">
        <ele>642.4</ele>
        <time>2019-12-25T11:34:15Z</time>
      </trkpt>
      <trkpt lat="-22.3052430" lon="-48.1406980">
        <ele>642.4</ele>
        <time>2019-12-25T11:34:19Z</time>
      </trkpt>
      <trkpt lat="-22.3050550" lon="-48.1406550">
        <ele>641.4</ele>
        <time>2019-12-25T11:34:23Z</time>
      </trkpt>
      <trkpt lat="-22.3048600" lon="-48.1406110">
        <ele>642.4</ele>
        <time>2019-12-25T11:34:27Z</time>
      </trkpt>
      <trkpt lat="-22.3046660" lon="-48.1405610">
        <ele>641.4</ele>
        <time>2019-12-25T11:34:31Z</time>
      </trkpt>
      <trkpt lat="-22.3044560" lon="-48.1405150">
        <ele>641.6</ele>
        <time>2019-12-25T11:34:35Z</time>
      </trkpt>
      <trkpt lat="-22.3042460" lon="-48.1404630">
        <ele>641.6</ele>
        <time>2019-12-25T11:34:39Z</time>
      </trkpt>
      <trkpt lat="-22.3040450" lon="-48.1404150">
        <ele>641.0</ele>
        <time>2019-12-25T11:34:43Z</time>
      </trkpt>
      <trkpt lat="-22.3038430" lon="-48.1403750">
        <ele>641.0</ele>
        <time>2019-12-25T11:34:47Z</time>
      </trkpt>
      <trkpt lat="-22.3036310" lon="-48.1403250">
        <ele>640.2</ele>
        <time>2019-12-25T11:34:51Z</time>
      </trkpt>
      <trkpt lat="-22.3034260" lon="-48.1402760">
        <ele>640.2</ele>
        <time>2019-12-25T11:34:55Z</time>
      </trkpt>
      <trkpt lat="-22.3032280" lon="-48.1402330">
        <ele>641.2</ele>
        <time>2019-12-25T11:34:59Z</time>
      </trkpt>
      <trkpt lat="-22.3030330" lon="-48.1401910">
        <ele>639.8</ele>
        <time>2019-12-25T11:35:03Z</time>
      </trkpt>
      <trkpt lat="-22.3028560" lon="-48.1401530">
        <ele>638.8</ele>
        <time>2019-12-25T11:35:07Z</time>
      </trkpt>
      <trkpt lat="-22.3026650" lon="-48.1401010">
        <ele>640.4</ele>
        <time>2019-12-25T11:35:11Z</time>
      </trkpt>
      <trkpt lat="-22.3024660" lon="-48.1400580">
        <ele>640.0</ele>
        <time>2019-12-25T11:35:15Z</time>
      </trkpt>
      <trkpt lat="-22.3022550" lon="-48.1400210">
        <ele>639.0</ele>
        <time>2019-12-25T11:35:19Z</time>
      </trkpt>
      <trkpt lat="-22.3020500" lon="-48.1399780">
        <ele>638.0</ele>
        <time>2019-12-25T11:35:23Z</time>
      </trkpt>
      <trkpt lat="-22.3018580" lon="-48.1399230">
        <ele>638.6</ele>
        <time>2019-12-25T11:35:27Z</time>
      </trkpt>
      <trkpt lat="-22.3017030" lon="-48.1398530">
        <ele>639.4</ele>
        <time>2019-12-25T11:35:31Z</time>
      </trkpt>
      <trkpt lat="-22.3015230" lon="-48.1397600">
        <ele>638.4</ele>
        <time>2019-12-25T11:35:35Z</time>
      </trkpt>
      <trkpt lat="-22.3013480" lon="-48.1396360">
        <ele>638.4</ele>
        <time>2019-12-25T11:35:39Z</time>
      </trkpt>
      <trkpt lat="-22.3011930" lon="-48.1394780">
        <ele>637.4</ele>
        <time>2019-12-25T11:35:43Z</time>
      </trkpt>
      <trkpt lat="-22.3010500" lon="-48.1393280">
        <ele>637.8</ele>
        <time>2019-12-25T11:35:47Z</time>
      </trkpt>
      <trkpt lat="-22.3009180" lon="-48.1392160">
        <ele>637.8</ele>
        <time>2019-12-25T11:35:51Z</time>
      </trkpt>
      <trkpt lat="-22.3007880" lon="-48.1390900">
        <ele>637.0</ele>
        <time>2019-12-25T11:35:55Z</time>
      </trkpt>
      <trkpt lat="-22.3006410" lon="-48.1389580">
        <ele>637.0</ele>
        <time>2019-12-25T11:35:59Z</time>
      </trkpt>
      <trkpt lat="-22.3005230" lon="-48.1388710">
        <ele>636.6</ele>
        <time>2019-12-25T11:36:03Z</time>
      </trkpt>
      <trkpt lat="-22.3003860" lon="-48.1387950">
        <ele>636.6</ele>
        <time>2019-12-25T11:36:07Z</time>
      </trkpt>
      <trkpt lat="-22.3002510" lon="-48.1387250">
        <ele>636.6</ele>
        <time>2019-12-25T11:36:11Z</time>
      </trkpt>
      <trkpt lat="-22.3000830" lon="-48.1386230">
        <ele>635.6</ele>
        <time>2019-12-25T11:36:15Z</time>
      </trkpt>
      <trkpt lat="-22.2999660" lon="-48.1385530">
        <ele>635.6</ele>
        <time>2019-12-25T11:36:19Z</time>
      </trkpt>
      <trkpt lat="-22.2998500" lon="-48.1384910">
        <ele>634.8</ele>
        <time>2019-12-25T11:36:23Z</time>
      </trkpt>
      <trkpt lat="-22.2997400" lon="-48.1384100">
        <ele>634.0</ele>
        <time>2019-12-25T11:36:27Z</time>
      </trkpt>
      <trkpt lat="-22.2996130" lon="-48.1383180">
        <ele>634.0</ele>
        <time>2019-12-25T11:36:31Z</time>
      </trkpt>
      <trkpt lat="-22.2994800" lon="-48.1382050">
        <ele>632.8</ele>
        <time>2019-12-25T11:36:35Z</time>
      </trkpt>
      <trkpt lat="-22.2992810" lon="-48.1380660">
        <ele>631.6</ele>
        <time>2019-12-25T11:36:39Z</time>
      </trkpt>
      <trkpt lat="-22.2990760" lon="-48.1379230">
        <ele>631.6</ele>
        <time>2019-12-25T11:36:43Z</time>
      </trkpt>
      <trkpt lat="-22.2988530" lon="-48.1377500">
        <ele>630.8</ele>
        <time>2019-12-25T11:36:47Z</time>
      </trkpt>
      <trkpt lat="-22.2986250" lon="-48.1375530">
        <ele>629.8</ele>
        <time>2019-12-25T11:36:51Z</time>
      </trkpt>
      <trkpt lat="-22.2983610" lon="-48.1373800">
        <ele>629.4</ele>
        <time>2019-12-25T11:36:55Z</time>
      </trkpt>
      <trkpt lat="-22.2980930" lon="-48.1371830">
        <ele>628.8</ele>
        <time>2019-12-25T11:36:59Z</time>
      </trkpt>
      <trkpt lat="-22.2978080" lon="-48.1369850">
        <ele>627.4</ele>
        <time>2019-12-25T11:37:03Z</time>
      </trkpt>
      <trkpt lat="-22.2975350" lon="-48.1367510">
        <ele>627.4</ele>
        <time>2019-12-25T11:37:07Z</time>
      </trkpt>
      <trkpt lat="-22.2972660" lon="-48.1365550">
        <ele>626.2</ele>
        <time>2019-12-25T11:37:11Z</time>
      </trkpt>
      <trkpt lat="-22.2969880" lon="-48.1363430">
        <ele>625.8</ele>
        <time>2019-12-25T11:37:15Z</time>
      </trkpt>
      <trkpt lat="-22.2967230" lon="-48.1361310">
        <ele>624.4</ele>
        <time>2019-12-25T11:37:19Z</time>
      </trkpt>
      <trkpt lat="-22.2964480" lon="-48.1359260">
        <ele>623.4</ele>
        <time>2019-12-25T11:37:23Z</time>
      </trkpt>
      <trkpt lat="-22.2961630" lon="-48.1357230">
        <ele>622.6</ele>
        <time>2019-12-25T11:37:27Z</time>
      </trkpt>
      <trkpt lat="-22.2958730" lon="-48.1355200">
        <ele>621.2</ele>
        <time>2019-12-25T11:37:31Z</time>
      </trkpt>
      <trkpt lat="-22.2955760" lon="-48.1353010">
        <ele>619.4</ele>
        <time>2019-12-25T11:37:35Z</time>
      </trkpt>
      <trkpt lat="-22.2953110" lon="-48.1350900">
        <ele>619.4</ele>
        <time>2019-12-25T11:37:39Z</time>
      </trkpt>
      <trkpt lat="-22.2950760" lon="-48.1347960">
        <ele>617.2</ele>
        <time>2019-12-25T11:37:43Z</time>
      </trkpt>
      <trkpt lat="-22.2948680" lon="-48.1344660">
        <ele>616.6</ele>
        <time>2019-12-25T11:37:47Z</time>
      </trkpt>
      <trkpt lat="-22.2946780" lon="-48.1341710">
        <ele>615.0</ele>
        <time>2019-12-25T11:37:51Z</time>
      </trkpt>
      <trkpt lat="-22.2944930" lon="-48.1338580">
        <ele>613.2</ele>
        <time>2019-12-25T11:37:55Z</time>
      </trkpt>
      <trkpt lat="-22.2943180" lon="-48.1335550">
        <ele>612.0</ele>
        <time>2019-12-25T11:37:59Z</time>
      </trkpt>
      <trkpt lat="-22.2941550" lon="-48.1332530">
        <ele>611.0</ele>
        <time>2019-12-25T11:38:03Z</time>
      </trkpt>
      <trkpt lat="-22.2939760" lon="-48.1329830">
        <ele>610.0</ele>
        <time>2019-12-25T11:38:07Z</time>
      </trkpt>
      <trkpt lat="-22.2937860" lon="-48.1327130">
        <ele>607.4</ele>
        <time>2019-12-25T11:38:11Z</time>
      </trkpt>
      <trkpt lat="-22.2935580" lon="-48.1323950">
        <ele>605.0</ele>
        <time>2019-12-25T11:38:15Z</time>
      </trkpt>
      <trkpt lat="-22.2932960" lon="-48.1320730">
        <ele>604.0</ele>
        <time>2019-12-25T11:38:19Z</time>
      </trkpt>
      <trkpt lat="-22.2930210" lon="-48.1317180">
        <ele>601.0</ele>
        <time>2019-12-25T11:38:23Z</time>
      </trkpt>
      <trkpt lat="-22.2927130" lon="-48.1312980">
        <ele>597.0</ele>
        <time>2019-12-25T11:38:27Z</time>
      </trkpt>
      <trkpt lat="-22.2923860" lon="-48.1308630">
        <ele>593.0</ele>
        <time>2019-12-25T11:38:31Z</time>
      </trkpt>
      <trkpt lat="-22.2921680" lon="-48.1303630">
        <ele>589.0</ele>
        <time>2019-12-25T11:38:35Z</time>
      </trkpt>
      <trkpt lat="-22.2920810" lon="-48.1299680">
        <ele>589.0</ele>
        <time>2019-12-25T11:38:39Z</time>
      </trkpt>
      <trkpt lat="-22.2920150" lon="-48.1297960">
        <ele>587.8</ele>
        <time>2019-12-25T11:38:43Z</time>
      </trkpt>
      <trkpt lat="-22.2919150" lon="-48.1297050">
        <ele>586.6</ele>
        <time>2019-12-25T11:38:47Z</time>
      </trkpt>
      <trkpt lat="-22.2918500" lon="-48.1296650">
        <ele>586.6</ele>
        <time>2019-12-25T11:38:51Z</time>
      </trkpt>
      <trkpt lat="-22.2918430" lon="-48.1296130">
        <ele>586.6</ele>
        <time>2019-12-25T11:38:55Z</time>
      </trkpt>
      <trkpt lat="-22.2917150" lon="-48.1295010">
        <ele>586.6</ele>
        <time>2019-12-25T11:38:59Z</time>
      </trkpt>
      <trkpt lat="-22.2915960" lon="-48.1293030">
        <ele>586.4</ele>
        <time>2019-12-25T11:39:03Z</time>
      </trkpt>
      <trkpt lat="-22.2914980" lon="-48.1291160">
        <ele>586.2</ele>
        <time>2019-12-25T11:39:07Z</time>
      </trkpt>
      <trkpt lat="-22.2914280" lon="-48.1289560">
        <ele>586.8</ele>
        <time>2019-12-25T11:39:11Z</time>
      </trkpt>
      <trkpt lat="-22.2913750" lon="-48.1288350">
        <ele>586.8</ele>
        <time>2019-12-25T11:39:15Z</time>
      </trkpt>
      <trkpt lat="-22.2913110" lon="-48.1287780">
        <ele>588.6</ele>
        <time>2019-12-25T11:39:19Z</time>
      </trkpt>
      <trkpt lat="-22.2913010" lon="-48.1287180">
        <ele>590.6</ele>
        <time>2019-12-25T11:39:23Z</time>
      </trkpt>
      <trkpt lat="-22.2912930" lon="-48.1286200">
        <ele>591.4</ele>
        <time>2019-12-25T11:39:27Z</time>
      </trkpt>
      <trkpt lat="-22.2912360" lon="-48.1285730">
        <ele>592.4</ele>
        <time>2019-12-25T11:39:31Z</time>
      </trkpt>
      <trkpt lat="-22.2911550" lon="-48.1285150">
        <ele>593.4</ele>
        <time>2019-12-25T11:39:35Z</time>
      </trkpt>
      <trkpt lat="-22.2910860" lon="-48.1284810">
        <ele>594.2</ele>
        <time>2019-12-25T11:39:39Z</time>
      </trkpt>
      <trkpt lat="-22.2910250" lon="-48.1284710">
        <ele>595.8</ele>
        <time>2019-12-25T11:39:43Z</time>
      </trkpt>
      <trkpt lat="-22.2909730" lon="-48.1284260">
        <ele>596.8</ele>
        <time>2019-12-25T11:39:47Z</time>
      </trkpt>
      <trkpt lat="-22.2909080" lon="-48.1283980">
        <ele>596.8</ele>
        <time>2019-12-25T11:39:51Z</time>
      </trkpt>
      <trkpt lat="-22.2908450" lon="-48.1283660">
        <ele>597.8</ele>
        <time>2019-12-25T11:39:55Z</time>
      </trkpt>
      <trkpt lat="-22.2907730" lon="-48.1283480">
        <ele>598.6</ele>
        <time>2019-12-25T11:39:59Z</time>
      </trkpt>
      <trkpt lat="-22.2906700" lon="-48.1282980">
        <ele>599.6</ele>
        <time>2019-12-25T11:40:03Z</time>
      </trkpt>
      <trkpt lat="-22.2905830" lon="-48.1282780">
        <ele>599.6</ele>
        <time>2019-12-25T11:40:07Z</time>
      </trkpt>
      <trkpt lat="-22.2905030" lon="-48.1282510">
        <ele>600.2</ele>
        <time>2019-12-25T11:40:11Z</time>
      </trkpt>
      <trkpt lat="-22.2904300" lon="-48.1282050">
        <ele>600.8</ele>
        <time>2019-12-25T11:40:15Z</time>
      </trkpt>
      <trkpt lat="-22.2903610" lon="-48.1281680">
        <ele>601.0</ele>
        <time>2019-12-25T11:40:19Z</time>
      </trkpt>
      <trkpt lat="-22.2902930" lon="-48.1281430">
        <ele>602.6</ele>
        <time>2019-12-25T11:40:23Z</time>
      </trkpt>
      <trkpt lat="-22.2902180" lon="-48.1281150">
        <ele>602.6</ele>
        <time>2019-12-25T11:40:27Z</time>
      </trkpt>
      <trkpt lat="-22.2901100" lon="-48.1280930">
        <ele>603.0</ele>
        <time>2019-12-25T11:40:31Z</time>
      </trkpt>
      <trkpt lat="-22.2900280" lon="-48.1280750">
        <ele>604.0</ele>
        <time>2019-12-25T11:40:35Z</time>
      </trkpt>
      <trkpt lat="-22.2899550" lon="-48.1280560">
        <ele>604.0</ele>
        <time>2019-12-25T11:40:39Z</time>
      </trkpt>
      <trkpt lat="-22.2898730" lon="-48.1280380">
        <ele>604.4</ele>
        <time>2019-12-25T11:40:43Z</time>
      </trkpt>
      <trkpt lat="-22.2898110" lon="-48.1280180">
        <ele>605.8</ele>
        <time>2019-12-25T11:40:47Z</time>
      </trkpt>
      <trkpt lat="-22.2897080" lon="-48.1280110">
        <ele>606.0</ele>
        <time>2019-12-25T11:40:51Z</time>
      </trkpt>
      <trkpt lat="-22.2896030" lon="-48.1280030">
        <ele>606.0</ele>
        <time>2019-12-25T11:40:55Z</time>
      </trkpt>
      <trkpt lat="-22.2895280" lon="-48.1279860">
        <ele>607.6</ele>
        <time>2019-12-25T11:40:59Z</time>
      </trkpt>
      <trkpt lat="-22.2894500" lon="-48.1279750">
        <ele>607.6</ele>
        <time>2019-12-25T11:41:03Z</time>
      </trkpt>
      <trkpt lat="-22.2893650" lon="-48.1279850">
        <ele>608.4</ele>
        <time>2019-12-25T11:41:07Z</time>
      </trkpt>
      <trkpt lat="-22.2892500" lon="-48.1279550">
        <ele>609.0</ele>
        <time>2019-12-25T11:41:11Z</time>
      </trkpt>
      <trkpt lat="-22.2891550" lon="-48.1279300">
        <ele>608.6</ele>
        <time>2019-12-25T11:41:15Z</time>
      </trkpt>
      <trkpt lat="-22.2890550" lon="-48.1279150">
        <ele>610.2</ele>
        <time>2019-12-25T11:41:19Z</time>
      </trkpt>
      <trkpt lat="-22.2889460" lon="-48.1278900">
        <ele>609.6</ele>
        <time>2019-12-25T11:41:23Z</time>
      </trkpt>
      <trkpt lat="-22.2888550" lon="-48.1278710">
        <ele>610.6</ele>
        <time>2019-12-25T11:41:27Z</time>
      </trkpt>
      <trkpt lat="-22.2887560" lon="-48.1278360">
        <ele>610.6</ele>
        <time>2019-12-25T11:41:31Z</time>
      </trkpt>
      <trkpt lat="-22.2886630" lon="-48.1278300">
        <ele>611.2</ele>
        <time>2019-12-25T11:41:35Z</time>
      </trkpt>
      <trkpt lat="-22.2885810" lon="-48.1278250">
        <ele>610.8</ele>
        <time>2019-12-25T11:41:39Z</time>
      </trkpt>
      <trkpt lat="-22.2885030" lon="-48.1278160">
        <ele>611.8</ele>
        <time>2019-12-25T11:41:43Z</time>
      </trkpt>
      <trkpt lat="-22.2884160" lon="-48.1278100">
        <ele>611.8</ele>
        <time>2019-12-25T11:41:47Z</time>
      </trkpt>
      <trkpt lat="-22.2883200" lon="-48.1278100">
        <ele>612.0</ele>
        <time>2019-12-25T11:41:51Z</time>
      </trkpt>
      <trkpt lat="-22.2882250" lon="-48.1277980">
        <ele>612.8</ele>
        <time>2019-12-25T11:41:55Z</time>
      </trkpt>
      <trkpt lat="-22.2881360" lon="-48.1277860">
        <ele>613.2</ele>
        <time>2019-12-25T11:41:59Z</time>
      </trkpt>
      <trkpt lat="-22.2880580" lon="-48.1277730">
        <ele>613.2</ele>
        <time>2019-12-25T11:42:03Z</time>
      </trkpt>
      <trkpt lat="-22.2879800" lon="-48.1277700">
        <ele>614.2</ele>
        <time>2019-12-25T11:42:07Z</time>
      </trkpt>
      <trkpt lat="-22.2878680" lon="-48.1277500">
        <ele>614.0</ele>
        <time>2019-12-25T11:42:11Z</time>
      </trkpt>
      <trkpt lat="-22.2877910" lon="-48.1277450">
        <ele>615.0</ele>
        <time>2019-12-25T11:42:15Z</time>
      </trkpt>
      <trkpt lat="-22.2876980" lon="-48.1277200">
        <ele>615.2</ele>
        <time>2019-12-25T11:42:19Z</time>
      </trkpt>
      <trkpt lat="-22.2876010" lon="-48.1277080">
        <ele>615.2</ele>
        <time>2019-12-25T11:42:23Z</time>
      </trkpt>
      <trkpt lat="-22.2874930" lon="-48.1276750">
        <ele>615.4</ele>
        <time>2019-12-25T11:42:27Z</time>
      </trkpt>
      <trkpt lat="-22.2874000" lon="-48.1276730">
        <ele>616.4</ele>
        <time>2019-12-25T11:42:31Z</time>
      </trkpt>
      <trkpt lat="-22.2872880" lon="-48.1276560">
        <ele>616.0</ele>
        <time>2019-12-25T11:42:35Z</time>
      </trkpt>
      <trkpt lat="-22.2871680" lon="-48.1276260">
        <ele>616.4</ele>
        <time>2019-12-25T11:42:39Z</time>
      </trkpt>
      <trkpt lat="-22.2870500" lon="-48.1276100">
        <ele>617.0</ele>
        <time>2019-12-25T11:42:43Z</time>
      </trkpt>
      <trkpt lat="-22.2869430" lon="-48.1276000">
        <ele>617.0</ele>
        <time>2019-12-25T11:42:47Z</time>
      </trkpt>
      <trkpt lat="-22.2868550" lon="-48.1275680">
        <ele>618.0</ele>
        <time>2019-12-25T11:42:51Z</time>
      </trkpt>
      <trkpt lat="-22.2867430" lon="-48.1275710">
        <ele>618.0</ele>
        <time>2019-12-25T11:42:55Z</time>
      </trkpt>
      <trkpt lat="-22.2866380" lon="-48.1275500">
        <ele>618.0</ele>
        <time>2019-12-25T11:42:59Z</time>
      </trkpt>
      <trkpt lat="-22.2865230" lon="-48.1275410">
        <ele>618.8</ele>
        <time>2019-12-25T11:43:03Z</time>
      </trkpt>
      <trkpt lat="-22.2863760" lon="-48.1275130">
        <ele>619.0</ele>
        <time>2019-12-25T11:43:07Z</time>
      </trkpt>
      <trkpt lat="-22.2862630" lon="-48.1274810">
        <ele>619.4</ele>
        <time>2019-12-25T11:43:11Z</time>
      </trkpt>
      <trkpt lat="-22.2861830" lon="-48.1274700">
        <ele>620.2</ele>
        <time>2019-12-25T11:43:15Z</time>
      </trkpt>
      <trkpt lat="-22.2860560" lon="-48.1274480">
        <ele>620.2</ele>
        <time>2019-12-25T11:43:19Z</time>
      </trkpt>
      <trkpt lat="-22.2859350" lon="-48.1274330">
        <ele>621.2</ele>
        <time>2019-12-25T11:43:23Z</time>
      </trkpt>
      <trkpt lat="-22.2857900" lon="-48.1274000">
        <ele>620.8</ele>
        <time>2019-12-25T11:43:27Z</time>
      </trkpt>
      <trkpt lat="-22.2856400" lon="-48.1273800">
        <ele>621.4</ele>
        <time>2019-12-25T11:43:31Z</time>
      </trkpt>
      <trkpt lat="-22.2855180" lon="-48.1273650">
        <ele>620.6</ele>
        <time>2019-12-25T11:43:35Z</time>
      </trkpt>
      <trkpt lat="-22.2853850" lon="-48.1273380">
        <ele>622.6</ele>
        <time>2019-12-25T11:43:39Z</time>
      </trkpt>
      <trkpt lat="-22.2852950" lon="-48.1273360">
        <ele>621.6</ele>
        <time>2019-12-25T11:43:43Z</time>
      </trkpt>
      <trkpt lat="-22.2851800" lon="-48.1273250">
        <ele>623.0</ele>
        <time>2019-12-25T11:43:47Z</time>
      </trkpt>
      <trkpt lat="-22.2850650" lon="-48.1273130">
        <ele>623.0</ele>
        <time>2019-12-25T11:43:51Z</time>
      </trkpt>
      <trkpt lat="-22.2849610" lon="-48.1272900">
        <ele>623.0</ele>
        <time>2019-12-25T11:43:55Z</time>
      </trkpt>
      <trkpt lat="-22.2848430" lon="-48.1272700">
        <ele>623.6</ele>
        <time>2019-12-25T11:43:59Z</time>
      </trkpt>
      <trkpt lat="-22.2847550" lon="-48.1272500">
        <ele>624.4</ele>
        <time>2019-12-25T11:44:03Z</time>
      </trkpt>
      <trkpt lat="-22.2846510" lon="-48.1272400">
        <ele>624.4</ele>
        <time>2019-12-25T11:44:07Z</time>
      </trkpt>
      <trkpt lat="-22.2845500" lon="-48.1272210">
        <ele>624.4</ele>
        <time>2019-12-25T11:44:11Z</time>
      </trkpt>
      <trkpt lat="-22.2844110" lon="-48.1272160">
        <ele>625.4</ele>
        <time>2019-12-25T11:44:15Z</time>
      </trkpt>
      <trkpt lat="-22.2842810" lon="-48.1272050">
        <ele>625.8</ele>
        <time>2019-12-25T11:44:19Z</time>
      </trkpt>
      <trkpt lat="-22.2841510" lon="-48.1271880">
        <ele>625.6</ele>
        <time>2019-12-25T11:44:23Z</time>
      </trkpt>
      <trkpt lat="-22.2840400" lon="-48.1271580">
        <ele>627.4</ele>
        <time>2019-12-25T11:44:27Z</time>
      </trkpt>
      <trkpt lat="-22.2839350" lon="-48.1271380">
        <ele>627.4</ele>
        <time>2019-12-25T11:44:31Z</time>
      </trkpt>
      <trkpt lat="-22.2838310" lon="-48.1271300">
        <ele>627.2</ele>
        <time>2019-12-25T11:44:35Z</time>
      </trkpt>
      <trkpt lat="-22.2837410" lon="-48.1271150">
        <ele>627.2</ele>
        <time>2019-12-25T11:44:39Z</time>
      </trkpt>
      <trkpt lat="-22.2836130" lon="-48.1270910">
        <ele>628.2</ele>
        <time>2019-12-25T11:44:43Z</time>
      </trkpt>
      <trkpt lat="-22.2834950" lon="-48.1270850">
        <ele>628.2</ele>
        <time>2019-12-25T11:44:47Z</time>
      </trkpt>
      <trkpt lat="-22.2833600" lon="-48.1270730">
        <ele>628.8</ele>
        <time>2019-12-25T11:44:51Z</time>
      </trkpt>
      <trkpt lat="-22.2832350" lon="-48.1270560">
        <ele>628.6</ele>
        <time>2019-12-25T11:44:55Z</time>
      </trkpt>
      <trkpt lat="-22.2831430" lon="-48.1270510">
        <ele>628.8</ele>
        <time>2019-12-25T11:44:59Z</time>
      </trkpt>
      <trkpt lat="-22.2830600" lon="-48.1270310">
        <ele>629.2</ele>
        <time>2019-12-25T11:45:03Z</time>
      </trkpt>
      <trkpt lat="-22.2829730" lon="-48.1270060">
        <ele>628.6</ele>
        <time>2019-12-25T11:45:07Z</time>
      </trkpt>
      <trkpt lat="-22.2828450" lon="-48.1269930">
        <ele>629.4</ele>
        <time>2019-12-25T11:45:11Z</time>
      </trkpt>
      <trkpt lat="-22.2827130" lon="-48.1269660">
        <ele>629.8</ele>
        <time>2019-12-25T11:45:15Z</time>
      </trkpt>
      <trkpt lat="-22.2826130" lon="-48.1269430">
        <ele>629.6</ele>
        <time>2019-12-25T11:45:19Z</time>
      </trkpt>
      <trkpt lat="-22.2825310" lon="-48.1269360">
        <ele>630.4</ele>
        <time>2019-12-25T11:45:23Z</time>
      </trkpt>
      <trkpt lat="-22.2824180" lon="-48.1269210">
        <ele>630.4</ele>
        <time>2019-12-25T11:45:27Z</time>
      </trkpt>
      <trkpt lat="-22.2823300" lon="-48.1268950">
        <ele>631.8</ele>
        <time>2019-12-25T11:45:31Z</time>
      </trkpt>
      <trkpt lat="-22.2822510" lon="-48.1268750">
        <ele>631.0</ele>
        <time>2019-12-25T11:45:35Z</time>
      </trkpt>
      <trkpt lat="-22.2821150" lon="-48.1268580">
        <ele>631.8</ele>
        <time>2019-12-25T11:45:39Z</time>
      </trkpt>
      <trkpt lat="-22.2820210" lon="-48.1268380">
        <ele>631.8</ele>
        <time>2019-12-25T11:45:43Z</time>
      </trkpt>
      <trkpt lat="-22.2819160" lon="-48.1268230">
        <ele>632.6</ele>
        <time>2019-12-25T11:45:47Z</time>
      </trkpt>
      <trkpt lat="-22.2818210" lon="-48.1267950">
        <ele>632.6</ele>
        <time>2019-12-25T11:45:51Z</time>
      </trkpt>
      <trkpt lat="-22.2817150" lon="-48.1267850">
        <ele>633.2</ele>
        <time>2019-12-25T11:45:55Z</time>
      </trkpt>
      <trkpt lat="-22.2815680" lon="-48.1267660">
        <ele>632.2</ele>
        <time>2019-12-25T11:45:59Z</time>
      </trkpt>
      <trkpt lat="-22.2814060" lon="-48.1267450">
        <ele>633.8</ele>
        <time>2019-12-25T11:46:03Z</time>
      </trkpt>
      <trkpt lat="-22.2812400" lon="-48.1267200">
        <ele>633.8</ele>
        <time>2019-12-25T11:46:07Z</time>
      </trkpt>
      <trkpt lat="-22.2811100" lon="-48.1267080">
        <ele>633.8</ele>
        <time>2019-12-25T11:46:11Z</time>
      </trkpt>
      <trkpt lat="-22.2810230" lon="-48.1266910">
        <ele>633.8</ele>
        <time>2019-12-25T11:46:15Z</time>
      </trkpt>
      <trkpt lat="-22.2809310" lon="-48.1266750">
        <ele>634.6</ele>
        <time>2019-12-25T11:46:19Z</time>
      </trkpt>
      <trkpt lat="-22.2807960" lon="-48.1266500">
        <ele>634.6</ele>
        <time>2019-12-25T11:46:23Z</time>
      </trkpt>
      <trkpt lat="-22.2806550" lon="-48.1266330">
        <ele>634.6</ele>
        <time>2019-12-25T11:46:27Z</time>
      </trkpt>
      <trkpt lat="-22.2805150" lon="-48.1266180">
        <ele>636.0</ele>
        <time>2019-12-25T11:46:31Z</time>
      </trkpt>
      <trkpt lat="-22.2803810" lon="-48.1265850">
        <ele>635.6</ele>
        <time>2019-12-25T11:46:35Z</time>
      </trkpt>
      <trkpt lat="-22.2802610" lon="-48.1265610">
        <ele>635.6</ele>
        <time>2019-12-25T11:46:39Z</time>
      </trkpt>
      <trkpt lat="-22.2801600" lon="-48.1265480">
        <ele>636.2</ele>
        <time>2019-12-25T11:46:43Z</time>
      </trkpt>
      <trkpt lat="-22.2800500" lon="-48.1265380">
        <ele>637.0</ele>
        <time>2019-12-25T11:46:47Z</time>
      </trkpt>
      <trkpt lat="-22.2799380" lon="-48.1265280">
        <ele>635.8</ele>
        <time>2019-12-25T11:46:51Z</time>
      </trkpt>
      <trkpt lat="-22.2797900" lon="-48.1265030">
        <ele>636.8</ele>
        <time>2019-12-25T11:46:55Z</time>
      </trkpt>
      <trkpt lat="-22.2796780" lon="-48.1264760">
        <ele>638.4</ele>
        <time>2019-12-25T11:46:59Z</time>
      </trkpt>
      <trkpt lat="-22.2795450" lon="-48.1264430">
        <ele>637.4</ele>
        <time>2019-12-25T11:47:03Z</time>
      </trkpt>
      <trkpt lat="-22.2794130" lon="-48.1264200">
        <ele>638.4</ele>
        <time>2019-12-25T11:47:07Z</time>
      </trkpt>
      <trkpt lat="-22.2792730" lon="-48.1263850">
        <ele>637.8</ele>
        <time>2019-12-25T11:47:11Z</time>
      </trkpt>
      <trkpt lat="-22.2791210" lon="-48.1263650">
        <ele>638.6</ele>
        <time>2019-12-25T11:47:15Z</time>
      </trkpt>
      <trkpt lat="-22.2789830" lon="-48.1263410">
        <ele>638.6</ele>
        <time>2019-12-25T11:47:19Z</time>
      </trkpt>
      <trkpt lat="-22.2788880" lon="-48.1263250">
        <ele>638.8</ele>
        <time>2019-12-25T11:47:23Z</time>
      </trkpt>
      <trkpt lat="-22.2787680" lon="-48.1262960">
        <ele>639.2</ele>
        <time>2019-12-25T11:47:27Z</time>
      </trkpt>
      <trkpt lat="-22.2786280" lon="-48.1262780">
        <ele>639.4</ele>
        <time>2019-12-25T11:47:31Z</time>
      </trkpt>
      <trkpt lat="-22.2784950" lon="-48.1262650">
        <ele>640.0</ele>
        <time>2019-12-25T11:47:35Z</time>
      </trkpt>
      <trkpt lat="-22.2783610" lon="-48.1262410">
        <ele>640.0</ele>
        <time>2019-12-25T11:47:39Z</time>
      </trkpt>
      <trkpt lat="-22.2782310" lon="-48.1262150">
        <ele>640.0</ele>
        <time>2019-12-25T11:47:43Z</time>
      </trkpt>
      <trkpt lat="-22.2780980" lon="-48.1261980">
        <ele>640.0</ele>
        <time>2019-12-25T11:47:47Z</time>
      </trkpt>
      <trkpt lat="-22.2779580" lon="-48.1261730">
        <ele>640.4</ele>
        <time>2019-12-25T11:47:51Z</time>
      </trkpt>
      <trkpt lat="-22.2778380" lon="-48.1261460">
        <ele>640.4</ele>
        <time>2019-12-25T11:47:55Z</time>
      </trkpt>
      <trkpt lat="-22.2776930" lon="-48.1261210">
        <ele>639.6</ele>
        <time>2019-12-25T11:47:59Z</time>
      </trkpt>
      <trkpt lat="-22.2775110" lon="-48.1261000">
        <ele>640.0</ele>
        <time>2019-12-25T11:48:03Z</time>
      </trkpt>
      <trkpt lat="-22.2773930" lon="-48.1261030">
        <ele>638.8</ele>
        <time>2019-12-25T11:48:07Z</time>
      </trkpt>
      <trkpt lat="-22.2772460" lon="-48.1260750">
        <ele>639.2</ele>
        <time>2019-12-25T11:48:11Z</time>
      </trkpt>
      <trkpt lat="-22.2770510" lon="-48.1260930">
        <ele>637.8</ele>
        <time>2019-12-25T11:48:15Z</time>
      </trkpt>
      <trkpt lat="-22.2768750" lon="-48.1260960">
        <ele>638.8</ele>
        <time>2019-12-25T11:48:19Z</time>
      </trkpt>
      <trkpt lat="-22.2767000" lon="-48.1260580">
        <ele>638.0</ele>
        <time>2019-12-25T11:48:23Z</time>
      </trkpt>
      <trkpt lat="-22.2765030" lon="-48.1260000">
        <ele>637.6</ele>
        <time>2019-12-25T11:48:27Z</time>
      </trkpt>
      <trkpt lat="-22.2763030" lon="-48.1259430">
        <ele>638.0</ele>
        <time>2019-12-25T11:48:31Z</time>
      </trkpt>
      <trkpt lat="-22.2761730" lon="-48.1258850">
        <ele>637.0</ele>
        <time>2019-12-25T11:48:35Z</time>
      </trkpt>
      <trkpt lat="-22.2760080" lon="-48.1257950">
        <ele>636.8</ele>
        <time>2019-12-25T11:48:39Z</time>
      </trkpt>
      <trkpt lat="-22.2758150" lon="-48.1257000">
        <ele>636.8</ele>
        <time>2019-12-25T11:48:43Z</time>
      </trkpt>
      <trkpt lat="-22.2758150" lon="-48.1257000">
        <ele>637.8</ele>
        <time>2019-12-25T11:48:47Z</time>
      </trkpt>
      <trkpt lat="-22.2755330" lon="-48.1255910">
        <ele>638.0</ele>
        <time>2019-12-25T11:48:51Z</time>
      </trkpt>
      <trkpt lat="-22.2753430" lon="-48.1254610">
        <ele>638.0</ele>
        <time>2019-12-25T11:48:55Z</time>
      </trkpt>
      <trkpt lat="-22.2751980" lon="-48.1253760">
        <ele>639.2</ele>
        <time>2019-12-25T11:48:59Z</time>
      </trkpt>
      <trkpt lat="-22.2750680" lon="-48.1252900">
        <ele>639.2</ele>
        <time>2019-12-25T11:49:03Z</time>
      </trkpt>
      <trkpt lat="-22.2749650" lon="-48.1251900">
        <ele>639.2</ele>
        <time>2019-12-25T11:49:07Z</time>
      </trkpt>
      <trkpt lat="-22.2748730" lon="-48.1250900">
        <ele>639.8</ele>
        <time>2019-12-25T11:49:11Z</time>
      </trkpt>
      <trkpt lat="-22.2747850" lon="-48.1249750">
        <ele>640.8</ele>
        <time>2019-12-25T11:49:15Z</time>
      </trkpt>
      <trkpt lat="-22.2747200" lon="-48.1248660">
        <ele>642.0</ele>
        <time>2019-12-25T11:49:19Z</time>
      </trkpt>
      <trkpt lat="-22.2746650" lon="-48.1247680">
        <ele>641.2</ele>
        <time>2019-12-25T11:49:23Z</time>
      </trkpt>
      <trkpt lat="-22.2746130" lon="-48.1246360">
        <ele>642.2</ele>
        <time>2019-12-25T11:49:27Z</time>
      </trkpt>
      <trkpt lat="-22.2745750" lon="-48.1245180">
        <ele>642.6</ele>
        <time>2019-12-25T11:49:31Z</time>
      </trkpt>
      <trkpt lat="-22.2745430" lon="-48.1244350">
        <ele>641.6</ele>
        <time>2019-12-25T11:49:35Z</time>
      </trkpt>
      <trkpt lat="-22.2746100" lon="-48.1239150">
        <ele>643.0</ele>
        <time>2019-12-25T11:51:32Z</time>
      </trkpt>
    </trkseg>
  </trk>
</gpx>
